<?xml version="1.0" encoding="UTF-8" standalone="no" ?>
<gpx xmlns="http://www.topografix.com/GPX/1/1" xmlns:xsi="http://www.w3.org/2001/XMLSchema-instance" xsi:schemaLocation="http://www.topografix.com/GPX/1/1 http://www.topografix.com/GPX/1/1/gpx.xsd" version="1.1" creator="VisuGPX - https://www.visugpx.com">
  <metadata>
    <name>RSPFY-Droue-Sur-Drouette</name>
    <desc><![CDATA[boucle de marche nordique le long de la Drouette.]]></desc>
  </metadata>
  <trk>
    <name><![CDATA[2023-03-16 08:55]]></name>
    <desc><![CDATA[<p>Heure de départ: 08:55 16 mars 2023<br/>Heure d'arrivée: 11:31 16 mars 2023<br/>Distance: 11,8 km (02:35)<br/>Temps déplacement: 02:14<br/>Vitesse moyenne: 4,55 km/h<br/>Vitesse moyenne mouv.: 5,27 km/h<br/>Vitesse Max.: 11,06 km/h<br/>Altitude minimale: 111 m<br/>Altitude maximale: 165 m<br/>Vitesse de montée: 178,2 m/h<br/>Vitesse de descente: -195,7 m/h<br/>Gain d'altitude: 234 m<br/>Perte d'altitude: -240 m<br/>Temps de montée: 01:19<br/>Temps de descente: 01:13<br/></p><hr align="center" width="480" style="height: 2px; width: 517px"/>]]></desc>
    <trkseg>
      <trkpt lat="48.60109" lon="1.70278">
        <ele>120</ele>
        <time>2023-03-16T07:55:47Z</time>
      </trkpt>
      <trkpt lat="48.601" lon="1.70285">
        <ele>120</ele>
        <time>2023-03-16T07:57:19Z</time>
      </trkpt>
      <trkpt lat="48.60095" lon="1.70298">
        <ele>120</ele>
        <time>2023-03-16T07:57:26Z</time>
      </trkpt>
      <trkpt lat="48.60091" lon="1.7031">
        <ele>119.8</ele>
        <time>2023-03-16T07:57:33Z</time>
      </trkpt>
      <trkpt lat="48.60087" lon="1.70322">
        <ele>119.4</ele>
        <time>2023-03-16T07:57:41Z</time>
      </trkpt>
      <trkpt lat="48.60079" lon="1.70314">
        <ele>119.7</ele>
        <time>2023-03-16T07:58:27Z</time>
      </trkpt>
      <trkpt lat="48.60072" lon="1.70305">
        <ele>120</ele>
        <time>2023-03-16T07:59:27Z</time>
      </trkpt>
      <trkpt lat="48.6008" lon="1.70314">
        <ele>119.7</ele>
        <time>2023-03-16T08:01:41Z</time>
      </trkpt>
      <trkpt lat="48.60088" lon="1.70307">
        <ele>120</ele>
        <time>2023-03-16T08:02:03Z</time>
      </trkpt>
      <trkpt lat="48.60094" lon="1.70295">
        <ele>120</ele>
        <time>2023-03-16T08:02:14Z</time>
      </trkpt>
      <trkpt lat="48.60097" lon="1.70281">
        <ele>120</ele>
        <time>2023-03-16T08:02:22Z</time>
      </trkpt>
      <trkpt lat="48.60098" lon="1.70266">
        <ele>120</ele>
        <time>2023-03-16T08:02:30Z</time>
      </trkpt>
      <trkpt lat="48.60096" lon="1.70252">
        <ele>120</ele>
        <time>2023-03-16T08:02:39Z</time>
      </trkpt>
      <trkpt lat="48.60088" lon="1.70245">
        <ele>120.2</ele>
        <time>2023-03-16T08:02:45Z</time>
      </trkpt>
      <trkpt lat="48.6008" lon="1.70237">
        <ele>120.5</ele>
        <time>2023-03-16T08:02:54Z</time>
      </trkpt>
      <trkpt lat="48.60071" lon="1.70231">
        <ele>120.8</ele>
        <time>2023-03-16T08:03:01Z</time>
      </trkpt>
      <trkpt lat="48.60063" lon="1.70225">
        <ele>121</ele>
        <time>2023-03-16T08:03:08Z</time>
      </trkpt>
      <trkpt lat="48.60053" lon="1.70222">
        <ele>121.2</ele>
        <time>2023-03-16T08:03:15Z</time>
      </trkpt>
      <trkpt lat="48.60045" lon="1.7023">
        <ele>121.8</ele>
        <time>2023-03-16T08:03:22Z</time>
      </trkpt>
      <trkpt lat="48.60036" lon="1.70237">
        <ele>122.4</ele>
        <time>2023-03-16T08:03:29Z</time>
      </trkpt>
      <trkpt lat="48.60028" lon="1.70246">
        <ele>123</ele>
        <time>2023-03-16T08:03:36Z</time>
      </trkpt>
      <trkpt lat="48.60021" lon="1.70257">
        <ele>123.5</ele>
        <time>2023-03-16T08:03:43Z</time>
      </trkpt>
      <trkpt lat="48.60015" lon="1.70267">
        <ele>123.5</ele>
        <time>2023-03-16T08:03:57Z</time>
      </trkpt>
      <trkpt lat="48.60023" lon="1.70272">
        <ele>122.6</ele>
        <time>2023-03-16T08:04:06Z</time>
      </trkpt>
      <trkpt lat="48.60031" lon="1.70281">
        <ele>121.8</ele>
        <time>2023-03-16T08:04:15Z</time>
      </trkpt>
      <trkpt lat="48.60038" lon="1.70289">
        <ele>121.2</ele>
        <time>2023-03-16T08:04:22Z</time>
      </trkpt>
      <trkpt lat="48.60046" lon="1.70297">
        <ele>120.7</ele>
        <time>2023-03-16T08:04:29Z</time>
      </trkpt>
      <trkpt lat="48.60054" lon="1.70305">
        <ele>120.1</ele>
        <time>2023-03-16T08:04:36Z</time>
      </trkpt>
      <trkpt lat="48.60058" lon="1.70317">
        <ele>119.6</ele>
        <time>2023-03-16T08:04:44Z</time>
      </trkpt>
      <trkpt lat="48.60049" lon="1.70324">
        <ele>119.5</ele>
        <time>2023-03-16T08:04:52Z</time>
      </trkpt>
      <trkpt lat="48.6004" lon="1.70331">
        <ele>119.7</ele>
        <time>2023-03-16T08:04:59Z</time>
      </trkpt>
      <trkpt lat="48.60033" lon="1.70343">
        <ele>119.8</ele>
        <time>2023-03-16T08:05:05Z</time>
      </trkpt>
      <trkpt lat="48.60028" lon="1.70356">
        <ele>120</ele>
        <time>2023-03-16T08:05:10Z</time>
      </trkpt>
      <trkpt lat="48.60022" lon="1.70367">
        <ele>120</ele>
        <time>2023-03-16T08:05:17Z</time>
      </trkpt>
      <trkpt lat="48.60017" lon="1.70381">
        <ele>120</ele>
        <time>2023-03-16T08:05:23Z</time>
      </trkpt>
      <trkpt lat="48.6001" lon="1.70392">
        <ele>120</ele>
        <time>2023-03-16T08:05:30Z</time>
      </trkpt>
      <trkpt lat="48.60004" lon="1.70405">
        <ele>119.9</ele>
        <time>2023-03-16T08:05:37Z</time>
      </trkpt>
      <trkpt lat="48.59996" lon="1.70416">
        <ele>120</ele>
        <time>2023-03-16T08:05:44Z</time>
      </trkpt>
      <trkpt lat="48.59992" lon="1.7043">
        <ele>119.7</ele>
        <time>2023-03-16T08:05:50Z</time>
      </trkpt>
      <trkpt lat="48.59986" lon="1.7044">
        <ele>119.6</ele>
        <time>2023-03-16T08:05:56Z</time>
      </trkpt>
      <trkpt lat="48.59979" lon="1.70452">
        <ele>119.8</ele>
        <time>2023-03-16T08:06:03Z</time>
      </trkpt>
      <trkpt lat="48.59973" lon="1.70463">
        <ele>120</ele>
        <time>2023-03-16T08:06:11Z</time>
      </trkpt>
      <trkpt lat="48.59966" lon="1.70472">
        <ele>120</ele>
        <time>2023-03-16T08:06:28Z</time>
      </trkpt>
      <trkpt lat="48.59961" lon="1.70485">
        <ele>120</ele>
        <time>2023-03-16T08:06:44Z</time>
      </trkpt>
      <trkpt lat="48.59954" lon="1.70496">
        <ele>120</ele>
        <time>2023-03-16T08:06:53Z</time>
      </trkpt>
      <trkpt lat="48.59952" lon="1.70511">
        <ele>120</ele>
        <time>2023-03-16T08:07:01Z</time>
      </trkpt>
      <trkpt lat="48.59951" lon="1.70526">
        <ele>120</ele>
        <time>2023-03-16T08:07:09Z</time>
      </trkpt>
      <trkpt lat="48.59949" lon="1.70539">
        <ele>120</ele>
        <time>2023-03-16T08:07:16Z</time>
      </trkpt>
      <trkpt lat="48.59945" lon="1.70552">
        <ele>120</ele>
        <time>2023-03-16T08:07:23Z</time>
      </trkpt>
      <trkpt lat="48.59943" lon="1.70567">
        <ele>120</ele>
        <time>2023-03-16T08:07:30Z</time>
      </trkpt>
      <trkpt lat="48.59946" lon="1.70581">
        <ele>120</ele>
        <time>2023-03-16T08:07:36Z</time>
      </trkpt>
      <trkpt lat="48.59944" lon="1.70597">
        <ele>120</ele>
        <time>2023-03-16T08:07:43Z</time>
      </trkpt>
      <trkpt lat="48.5994" lon="1.7061">
        <ele>120.2</ele>
        <time>2023-03-16T08:07:50Z</time>
      </trkpt>
      <trkpt lat="48.59935" lon="1.70622">
        <ele>120.4</ele>
        <time>2023-03-16T08:07:57Z</time>
      </trkpt>
      <trkpt lat="48.59931" lon="1.70635">
        <ele>120.5</ele>
        <time>2023-03-16T08:08:04Z</time>
      </trkpt>
      <trkpt lat="48.59927" lon="1.70648">
        <ele>120.6</ele>
        <time>2023-03-16T08:08:11Z</time>
      </trkpt>
      <trkpt lat="48.59922" lon="1.70662">
        <ele>120.8</ele>
        <time>2023-03-16T08:08:18Z</time>
      </trkpt>
      <trkpt lat="48.5992" lon="1.70675">
        <ele>120.9</ele>
        <time>2023-03-16T08:08:24Z</time>
      </trkpt>
      <trkpt lat="48.59925" lon="1.70689">
        <ele>120.7</ele>
        <time>2023-03-16T08:08:31Z</time>
      </trkpt>
      <trkpt lat="48.5993" lon="1.70704">
        <ele>120.4</ele>
        <time>2023-03-16T08:08:37Z</time>
      </trkpt>
      <trkpt lat="48.59931" lon="1.70718">
        <ele>120.1</ele>
        <time>2023-03-16T08:08:43Z</time>
      </trkpt>
      <trkpt lat="48.59928" lon="1.70731">
        <ele>120</ele>
        <time>2023-03-16T08:08:49Z</time>
      </trkpt>
      <trkpt lat="48.59925" lon="1.70745">
        <ele>120</ele>
        <time>2023-03-16T08:08:55Z</time>
      </trkpt>
      <trkpt lat="48.59927" lon="1.70759">
        <ele>120.2</ele>
        <time>2023-03-16T08:09:01Z</time>
      </trkpt>
      <trkpt lat="48.59931" lon="1.70771">
        <ele>120.4</ele>
        <time>2023-03-16T08:09:08Z</time>
      </trkpt>
      <trkpt lat="48.59928" lon="1.70785">
        <ele>120.6</ele>
        <time>2023-03-16T08:09:14Z</time>
      </trkpt>
      <trkpt lat="48.59926" lon="1.708">
        <ele>120.7</ele>
        <time>2023-03-16T08:09:21Z</time>
      </trkpt>
      <trkpt lat="48.59922" lon="1.70815">
        <ele>120.9</ele>
        <time>2023-03-16T08:09:29Z</time>
      </trkpt>
      <trkpt lat="48.59922" lon="1.70829">
        <ele>121</ele>
        <time>2023-03-16T08:09:36Z</time>
      </trkpt>
      <trkpt lat="48.59921" lon="1.70844">
        <ele>121</ele>
        <time>2023-03-16T08:09:42Z</time>
      </trkpt>
      <trkpt lat="48.5992" lon="1.70858">
        <ele>121</ele>
        <time>2023-03-16T08:09:49Z</time>
      </trkpt>
      <trkpt lat="48.59917" lon="1.70871">
        <ele>121</ele>
        <time>2023-03-16T08:09:56Z</time>
      </trkpt>
      <trkpt lat="48.59913" lon="1.70885">
        <ele>121.1</ele>
        <time>2023-03-16T08:10:03Z</time>
      </trkpt>
      <trkpt lat="48.59917" lon="1.70899">
        <ele>120.6</ele>
        <time>2023-03-16T08:10:11Z</time>
      </trkpt>
      <trkpt lat="48.59919" lon="1.70912">
        <ele>120.2</ele>
        <time>2023-03-16T08:10:20Z</time>
      </trkpt>
      <trkpt lat="48.59918" lon="1.70927">
        <ele>120.4</ele>
        <time>2023-03-16T08:10:28Z</time>
      </trkpt>
      <trkpt lat="48.59923" lon="1.70939">
        <ele>120.9</ele>
        <time>2023-03-16T08:10:36Z</time>
      </trkpt>
      <trkpt lat="48.59929" lon="1.70951">
        <ele>121</ele>
        <time>2023-03-16T08:10:43Z</time>
      </trkpt>
      <trkpt lat="48.59934" lon="1.70964">
        <ele>121</ele>
        <time>2023-03-16T08:10:50Z</time>
      </trkpt>
      <trkpt lat="48.59937" lon="1.70977">
        <ele>121.2</ele>
        <time>2023-03-16T08:10:59Z</time>
      </trkpt>
      <trkpt lat="48.59939" lon="1.70993">
        <ele>121.7</ele>
        <time>2023-03-16T08:11:09Z</time>
      </trkpt>
      <trkpt lat="48.59939" lon="1.71008">
        <ele>121.8</ele>
        <time>2023-03-16T08:11:17Z</time>
      </trkpt>
      <trkpt lat="48.59937" lon="1.71023">
        <ele>121.4</ele>
        <time>2023-03-16T08:11:25Z</time>
      </trkpt>
      <trkpt lat="48.59934" lon="1.71037">
        <ele>121.3</ele>
        <time>2023-03-16T08:11:33Z</time>
      </trkpt>
      <trkpt lat="48.59932" lon="1.71051">
        <ele>121.1</ele>
        <time>2023-03-16T08:11:40Z</time>
      </trkpt>
      <trkpt lat="48.59931" lon="1.71066">
        <ele>121</ele>
        <time>2023-03-16T08:11:49Z</time>
      </trkpt>
      <trkpt lat="48.59929" lon="1.71081">
        <ele>121</ele>
        <time>2023-03-16T08:11:56Z</time>
      </trkpt>
      <trkpt lat="48.59926" lon="1.71095">
        <ele>121.1</ele>
        <time>2023-03-16T08:12:04Z</time>
      </trkpt>
      <trkpt lat="48.5992" lon="1.71106">
        <ele>121.1</ele>
        <time>2023-03-16T08:12:10Z</time>
      </trkpt>
      <trkpt lat="48.59915" lon="1.71118">
        <ele>121.2</ele>
        <time>2023-03-16T08:12:16Z</time>
      </trkpt>
      <trkpt lat="48.59912" lon="1.71131">
        <ele>121.6</ele>
        <time>2023-03-16T08:12:22Z</time>
      </trkpt>
      <trkpt lat="48.59908" lon="1.71144">
        <ele>121.9</ele>
        <time>2023-03-16T08:12:28Z</time>
      </trkpt>
      <trkpt lat="48.59905" lon="1.71157">
        <ele>122.3</ele>
        <time>2023-03-16T08:12:35Z</time>
      </trkpt>
      <trkpt lat="48.59899" lon="1.71168">
        <ele>122.2</ele>
        <time>2023-03-16T08:12:41Z</time>
      </trkpt>
      <trkpt lat="48.59892" lon="1.71179">
        <ele>122</ele>
        <time>2023-03-16T08:12:48Z</time>
      </trkpt>
      <trkpt lat="48.59884" lon="1.71186">
        <ele>121.7</ele>
        <time>2023-03-16T08:12:55Z</time>
      </trkpt>
      <trkpt lat="48.59874" lon="1.7119">
        <ele>121.8</ele>
        <time>2023-03-16T08:13:02Z</time>
      </trkpt>
      <trkpt lat="48.59865" lon="1.71193">
        <ele>121.9</ele>
        <time>2023-03-16T08:13:08Z</time>
      </trkpt>
      <trkpt lat="48.59856" lon="1.71197">
        <ele>121.8</ele>
        <time>2023-03-16T08:13:14Z</time>
      </trkpt>
      <trkpt lat="48.59846" lon="1.712">
        <ele>121.6</ele>
        <time>2023-03-16T08:13:20Z</time>
      </trkpt>
      <trkpt lat="48.59837" lon="1.71205">
        <ele>121.4</ele>
        <time>2023-03-16T08:13:26Z</time>
      </trkpt>
      <trkpt lat="48.59827" lon="1.7121">
        <ele>121.6</ele>
        <time>2023-03-16T08:13:32Z</time>
      </trkpt>
      <trkpt lat="48.59818" lon="1.71215">
        <ele>121.7</ele>
        <time>2023-03-16T08:13:38Z</time>
      </trkpt>
      <trkpt lat="48.59809" lon="1.7122">
        <ele>121.9</ele>
        <time>2023-03-16T08:13:44Z</time>
      </trkpt>
      <trkpt lat="48.59801" lon="1.71225">
        <ele>121.8</ele>
        <time>2023-03-16T08:13:50Z</time>
      </trkpt>
      <trkpt lat="48.59791" lon="1.71231">
        <ele>121.6</ele>
        <time>2023-03-16T08:13:57Z</time>
      </trkpt>
      <trkpt lat="48.59783" lon="1.71237">
        <ele>121.6</ele>
        <time>2023-03-16T08:14:03Z</time>
      </trkpt>
      <trkpt lat="48.59775" lon="1.71244">
        <ele>121.8</ele>
        <time>2023-03-16T08:14:09Z</time>
      </trkpt>
      <trkpt lat="48.59766" lon="1.71248">
        <ele>121.9</ele>
        <time>2023-03-16T08:14:16Z</time>
      </trkpt>
      <trkpt lat="48.59758" lon="1.71253">
        <ele>122</ele>
        <time>2023-03-16T08:14:22Z</time>
      </trkpt>
      <trkpt lat="48.59749" lon="1.71258">
        <ele>122</ele>
        <time>2023-03-16T08:14:29Z</time>
      </trkpt>
      <trkpt lat="48.5974" lon="1.71268">
        <ele>122</ele>
        <time>2023-03-16T08:14:36Z</time>
      </trkpt>
      <trkpt lat="48.59734" lon="1.71279">
        <ele>122</ele>
        <time>2023-03-16T08:14:42Z</time>
      </trkpt>
      <trkpt lat="48.5973" lon="1.71294">
        <ele>122</ele>
        <time>2023-03-16T08:14:48Z</time>
      </trkpt>
      <trkpt lat="48.59726" lon="1.71308">
        <ele>122.1</ele>
        <time>2023-03-16T08:14:54Z</time>
      </trkpt>
      <trkpt lat="48.59721" lon="1.71321">
        <ele>122.5</ele>
        <time>2023-03-16T08:15:00Z</time>
      </trkpt>
      <trkpt lat="48.59715" lon="1.71332">
        <ele>122.7</ele>
        <time>2023-03-16T08:15:06Z</time>
      </trkpt>
      <trkpt lat="48.59709" lon="1.71345">
        <ele>122.9</ele>
        <time>2023-03-16T08:15:13Z</time>
      </trkpt>
      <trkpt lat="48.59704" lon="1.71358">
        <ele>123.2</ele>
        <time>2023-03-16T08:15:20Z</time>
      </trkpt>
      <trkpt lat="48.59699" lon="1.71371">
        <ele>123.6</ele>
        <time>2023-03-16T08:15:27Z</time>
      </trkpt>
      <trkpt lat="48.59697" lon="1.71387">
        <ele>124.1</ele>
        <time>2023-03-16T08:15:34Z</time>
      </trkpt>
      <trkpt lat="48.59698" lon="1.71401">
        <ele>124.8</ele>
        <time>2023-03-16T08:15:41Z</time>
      </trkpt>
      <trkpt lat="48.59695" lon="1.71416">
        <ele>125.1</ele>
        <time>2023-03-16T08:15:49Z</time>
      </trkpt>
      <trkpt lat="48.59691" lon="1.71429">
        <ele>125.6</ele>
        <time>2023-03-16T08:15:55Z</time>
      </trkpt>
      <trkpt lat="48.59688" lon="1.71442">
        <ele>126.1</ele>
        <time>2023-03-16T08:16:01Z</time>
      </trkpt>
      <trkpt lat="48.59684" lon="1.71455">
        <ele>126.2</ele>
        <time>2023-03-16T08:16:07Z</time>
      </trkpt>
      <trkpt lat="48.59679" lon="1.71468">
        <ele>126.2</ele>
        <time>2023-03-16T08:16:13Z</time>
      </trkpt>
      <trkpt lat="48.59675" lon="1.7148">
        <ele>126.3</ele>
        <time>2023-03-16T08:16:19Z</time>
      </trkpt>
      <trkpt lat="48.59671" lon="1.71492">
        <ele>126.7</ele>
        <time>2023-03-16T08:16:25Z</time>
      </trkpt>
      <trkpt lat="48.59666" lon="1.71505">
        <ele>127.1</ele>
        <time>2023-03-16T08:16:33Z</time>
      </trkpt>
      <trkpt lat="48.59662" lon="1.7152">
        <ele>127.1</ele>
        <time>2023-03-16T08:16:41Z</time>
      </trkpt>
      <trkpt lat="48.59659" lon="1.71533">
        <ele>126.8</ele>
        <time>2023-03-16T08:16:47Z</time>
      </trkpt>
      <trkpt lat="48.59656" lon="1.71546">
        <ele>126.3</ele>
        <time>2023-03-16T08:16:53Z</time>
      </trkpt>
      <trkpt lat="48.59653" lon="1.7156">
        <ele>126.1</ele>
        <time>2023-03-16T08:16:59Z</time>
      </trkpt>
      <trkpt lat="48.59649" lon="1.71575">
        <ele>125.8</ele>
        <time>2023-03-16T08:17:06Z</time>
      </trkpt>
      <trkpt lat="48.59645" lon="1.71589">
        <ele>125.6</ele>
        <time>2023-03-16T08:17:13Z</time>
      </trkpt>
      <trkpt lat="48.59644" lon="1.71603">
        <ele>126.6</ele>
        <time>2023-03-16T08:17:22Z</time>
      </trkpt>
      <trkpt lat="48.59635" lon="1.7161">
        <ele>126.6</ele>
        <time>2023-03-16T08:17:28Z</time>
      </trkpt>
      <trkpt lat="48.59626" lon="1.7161">
        <ele>126</ele>
        <time>2023-03-16T08:17:34Z</time>
      </trkpt>
      <trkpt lat="48.59616" lon="1.71612">
        <ele>125.3</ele>
        <time>2023-03-16T08:17:40Z</time>
      </trkpt>
      <trkpt lat="48.59606" lon="1.71614">
        <ele>124.7</ele>
        <time>2023-03-16T08:17:46Z</time>
      </trkpt>
      <trkpt lat="48.59596" lon="1.71615">
        <ele>124.4</ele>
        <time>2023-03-16T08:17:53Z</time>
      </trkpt>
      <trkpt lat="48.59587" lon="1.71615">
        <ele>124.1</ele>
        <time>2023-03-16T08:18:00Z</time>
      </trkpt>
      <trkpt lat="48.59577" lon="1.71616">
        <ele>123.8</ele>
        <time>2023-03-16T08:18:07Z</time>
      </trkpt>
      <trkpt lat="48.59568" lon="1.71616">
        <ele>123.4</ele>
        <time>2023-03-16T08:18:14Z</time>
      </trkpt>
      <trkpt lat="48.59559" lon="1.71622">
        <ele>123.1</ele>
        <time>2023-03-16T08:18:21Z</time>
      </trkpt>
      <trkpt lat="48.59549" lon="1.71624">
        <ele>123.1</ele>
        <time>2023-03-16T08:18:28Z</time>
      </trkpt>
      <trkpt lat="48.59539" lon="1.71626">
        <ele>123.3</ele>
        <time>2023-03-16T08:18:34Z</time>
      </trkpt>
      <trkpt lat="48.5953" lon="1.7163">
        <ele>123.3</ele>
        <time>2023-03-16T08:18:41Z</time>
      </trkpt>
      <trkpt lat="48.59521" lon="1.71637">
        <ele>123.3</ele>
        <time>2023-03-16T08:18:48Z</time>
      </trkpt>
      <trkpt lat="48.59512" lon="1.71642">
        <ele>123.6</ele>
        <time>2023-03-16T08:18:55Z</time>
      </trkpt>
      <trkpt lat="48.59502" lon="1.71646">
        <ele>123.9</ele>
        <time>2023-03-16T08:19:02Z</time>
      </trkpt>
      <trkpt lat="48.59493" lon="1.71652">
        <ele>124.3</ele>
        <time>2023-03-16T08:19:11Z</time>
      </trkpt>
      <trkpt lat="48.5949" lon="1.71666">
        <ele>124.4</ele>
        <time>2023-03-16T08:19:20Z</time>
      </trkpt>
      <trkpt lat="48.59486" lon="1.71679">
        <ele>124.9</ele>
        <time>2023-03-16T08:19:27Z</time>
      </trkpt>
      <trkpt lat="48.59484" lon="1.71693">
        <ele>125.5</ele>
        <time>2023-03-16T08:19:34Z</time>
      </trkpt>
      <trkpt lat="48.59482" lon="1.71708">
        <ele>125.8</ele>
        <time>2023-03-16T08:19:42Z</time>
      </trkpt>
      <trkpt lat="48.59481" lon="1.71722">
        <ele>126.1</ele>
        <time>2023-03-16T08:19:49Z</time>
      </trkpt>
      <trkpt lat="48.59479" lon="1.71737">
        <ele>125.5</ele>
        <time>2023-03-16T08:19:55Z</time>
      </trkpt>
      <trkpt lat="48.59474" lon="1.71751">
        <ele>124.9</ele>
        <time>2023-03-16T08:20:02Z</time>
      </trkpt>
      <trkpt lat="48.59471" lon="1.71765">
        <ele>125.4</ele>
        <time>2023-03-16T08:20:09Z</time>
      </trkpt>
      <trkpt lat="48.5947" lon="1.7178">
        <ele>125.3</ele>
        <time>2023-03-16T08:20:16Z</time>
      </trkpt>
      <trkpt lat="48.59469" lon="1.71794">
        <ele>125.3</ele>
        <time>2023-03-16T08:20:22Z</time>
      </trkpt>
      <trkpt lat="48.59468" lon="1.71808">
        <ele>125.3</ele>
        <time>2023-03-16T08:20:29Z</time>
      </trkpt>
      <trkpt lat="48.59466" lon="1.71823">
        <ele>125</ele>
        <time>2023-03-16T08:20:36Z</time>
      </trkpt>
      <trkpt lat="48.59466" lon="1.71837">
        <ele>124.6</ele>
        <time>2023-03-16T08:20:43Z</time>
      </trkpt>
      <trkpt lat="48.59465" lon="1.71851">
        <ele>124.6</ele>
        <time>2023-03-16T08:20:50Z</time>
      </trkpt>
      <trkpt lat="48.59467" lon="1.71864">
        <ele>124.4</ele>
        <time>2023-03-16T08:20:56Z</time>
      </trkpt>
      <trkpt lat="48.59471" lon="1.71878">
        <ele>124.1</ele>
        <time>2023-03-16T08:21:02Z</time>
      </trkpt>
      <trkpt lat="48.59475" lon="1.71891">
        <ele>124</ele>
        <time>2023-03-16T08:21:08Z</time>
      </trkpt>
      <trkpt lat="48.59479" lon="1.71905">
        <ele>123.9</ele>
        <time>2023-03-16T08:21:14Z</time>
      </trkpt>
      <trkpt lat="48.59481" lon="1.71919">
        <ele>123.7</ele>
        <time>2023-03-16T08:21:20Z</time>
      </trkpt>
      <trkpt lat="48.59482" lon="1.71932">
        <ele>123.8</ele>
        <time>2023-03-16T08:21:26Z</time>
      </trkpt>
      <trkpt lat="48.59482" lon="1.71948">
        <ele>124</ele>
        <time>2023-03-16T08:21:32Z</time>
      </trkpt>
      <trkpt lat="48.59482" lon="1.71963">
        <ele>124</ele>
        <time>2023-03-16T08:21:38Z</time>
      </trkpt>
      <trkpt lat="48.59482" lon="1.71977">
        <ele>124.1</ele>
        <time>2023-03-16T08:21:45Z</time>
      </trkpt>
      <trkpt lat="48.59482" lon="1.71991">
        <ele>124.5</ele>
        <time>2023-03-16T08:21:52Z</time>
      </trkpt>
      <trkpt lat="48.5948" lon="1.72005">
        <ele>124.7</ele>
        <time>2023-03-16T08:21:57Z</time>
      </trkpt>
      <trkpt lat="48.59477" lon="1.72019">
        <ele>124.8</ele>
        <time>2023-03-16T08:22:03Z</time>
      </trkpt>
      <trkpt lat="48.59474" lon="1.72034">
        <ele>124.9</ele>
        <time>2023-03-16T08:22:09Z</time>
      </trkpt>
      <trkpt lat="48.59472" lon="1.72048">
        <ele>125</ele>
        <time>2023-03-16T08:22:15Z</time>
      </trkpt>
      <trkpt lat="48.5947" lon="1.72061">
        <ele>125.2</ele>
        <time>2023-03-16T08:22:21Z</time>
      </trkpt>
      <trkpt lat="48.59467" lon="1.72075">
        <ele>125.4</ele>
        <time>2023-03-16T08:22:27Z</time>
      </trkpt>
      <trkpt lat="48.59464" lon="1.72088">
        <ele>125.5</ele>
        <time>2023-03-16T08:22:33Z</time>
      </trkpt>
      <trkpt lat="48.59461" lon="1.72101">
        <ele>125.6</ele>
        <time>2023-03-16T08:22:39Z</time>
      </trkpt>
      <trkpt lat="48.59458" lon="1.72115">
        <ele>125.4</ele>
        <time>2023-03-16T08:22:45Z</time>
      </trkpt>
      <trkpt lat="48.59454" lon="1.72128">
        <ele>125</ele>
        <time>2023-03-16T08:22:51Z</time>
      </trkpt>
      <trkpt lat="48.59451" lon="1.72141">
        <ele>124.7</ele>
        <time>2023-03-16T08:22:57Z</time>
      </trkpt>
      <trkpt lat="48.59445" lon="1.72153">
        <ele>125</ele>
        <time>2023-03-16T08:23:05Z</time>
      </trkpt>
      <trkpt lat="48.59438" lon="1.72163">
        <ele>125.1</ele>
        <time>2023-03-16T08:23:11Z</time>
      </trkpt>
      <trkpt lat="48.59437" lon="1.72176">
        <ele>124.7</ele>
        <time>2023-03-16T08:23:19Z</time>
      </trkpt>
      <trkpt lat="48.59432" lon="1.72191">
        <ele>124.5</ele>
        <time>2023-03-16T08:23:26Z</time>
      </trkpt>
      <trkpt lat="48.59427" lon="1.72203">
        <ele>124.6</ele>
        <time>2023-03-16T08:23:32Z</time>
      </trkpt>
      <trkpt lat="48.59421" lon="1.72215">
        <ele>124.8</ele>
        <time>2023-03-16T08:23:39Z</time>
      </trkpt>
      <trkpt lat="48.59417" lon="1.72228">
        <ele>125</ele>
        <time>2023-03-16T08:23:46Z</time>
      </trkpt>
      <trkpt lat="48.59411" lon="1.72241">
        <ele>125.1</ele>
        <time>2023-03-16T08:23:52Z</time>
      </trkpt>
      <trkpt lat="48.59405" lon="1.72253">
        <ele>124.9</ele>
        <time>2023-03-16T08:23:58Z</time>
      </trkpt>
      <trkpt lat="48.59399" lon="1.72265">
        <ele>124.5</ele>
        <time>2023-03-16T08:24:04Z</time>
      </trkpt>
      <trkpt lat="48.59394" lon="1.72277">
        <ele>124</ele>
        <time>2023-03-16T08:24:11Z</time>
      </trkpt>
      <trkpt lat="48.59388" lon="1.7229">
        <ele>124</ele>
        <time>2023-03-16T08:24:19Z</time>
      </trkpt>
      <trkpt lat="48.59386" lon="1.72304">
        <ele>124.1</ele>
        <time>2023-03-16T08:24:27Z</time>
      </trkpt>
      <trkpt lat="48.59386" lon="1.72319">
        <ele>124.1</ele>
        <time>2023-03-16T08:24:35Z</time>
      </trkpt>
      <trkpt lat="48.59385" lon="1.72333">
        <ele>124.1</ele>
        <time>2023-03-16T08:24:43Z</time>
      </trkpt>
      <trkpt lat="48.59384" lon="1.72348">
        <ele>124.2</ele>
        <time>2023-03-16T08:24:50Z</time>
      </trkpt>
      <trkpt lat="48.59383" lon="1.72363">
        <ele>124.2</ele>
        <time>2023-03-16T08:24:57Z</time>
      </trkpt>
      <trkpt lat="48.59382" lon="1.72378">
        <ele>124.2</ele>
        <time>2023-03-16T08:25:03Z</time>
      </trkpt>
      <trkpt lat="48.59381" lon="1.72392">
        <ele>124.3</ele>
        <time>2023-03-16T08:25:09Z</time>
      </trkpt>
      <trkpt lat="48.5938" lon="1.72406">
        <ele>124.3</ele>
        <time>2023-03-16T08:25:15Z</time>
      </trkpt>
      <trkpt lat="48.5938" lon="1.7242">
        <ele>124.3</ele>
        <time>2023-03-16T08:25:21Z</time>
      </trkpt>
      <trkpt lat="48.59378" lon="1.72436">
        <ele>124.4</ele>
        <time>2023-03-16T08:25:27Z</time>
      </trkpt>
      <trkpt lat="48.59378" lon="1.72451">
        <ele>124.4</ele>
        <time>2023-03-16T08:25:33Z</time>
      </trkpt>
      <trkpt lat="48.59375" lon="1.72464">
        <ele>124.5</ele>
        <time>2023-03-16T08:25:39Z</time>
      </trkpt>
      <trkpt lat="48.59365" lon="1.72468">
        <ele>124.8</ele>
        <time>2023-03-16T08:25:54Z</time>
      </trkpt>
      <trkpt lat="48.59356" lon="1.72467">
        <ele>125.2</ele>
        <time>2023-03-16T08:26:01Z</time>
      </trkpt>
      <trkpt lat="48.59346" lon="1.72465">
        <ele>125.5</ele>
        <time>2023-03-16T08:26:08Z</time>
      </trkpt>
      <trkpt lat="48.59336" lon="1.72463">
        <ele>125.9</ele>
        <time>2023-03-16T08:26:16Z</time>
      </trkpt>
      <trkpt lat="48.59327" lon="1.72466">
        <ele>126.4</ele>
        <time>2023-03-16T08:26:23Z</time>
      </trkpt>
      <trkpt lat="48.59319" lon="1.72473">
        <ele>127</ele>
        <time>2023-03-16T08:26:30Z</time>
      </trkpt>
      <trkpt lat="48.59312" lon="1.72483">
        <ele>127.5</ele>
        <time>2023-03-16T08:26:38Z</time>
      </trkpt>
      <trkpt lat="48.59305" lon="1.72494">
        <ele>128</ele>
        <time>2023-03-16T08:26:46Z</time>
      </trkpt>
      <trkpt lat="48.59302" lon="1.72508">
        <ele>128.2</ele>
        <time>2023-03-16T08:26:55Z</time>
      </trkpt>
      <trkpt lat="48.593" lon="1.72522">
        <ele>128.4</ele>
        <time>2023-03-16T08:27:02Z</time>
      </trkpt>
      <trkpt lat="48.59296" lon="1.72535">
        <ele>128.4</ele>
        <time>2023-03-16T08:27:09Z</time>
      </trkpt>
      <trkpt lat="48.59289" lon="1.72545">
        <ele>128.5</ele>
        <time>2023-03-16T08:27:16Z</time>
      </trkpt>
      <trkpt lat="48.59281" lon="1.72554">
        <ele>128.8</ele>
        <time>2023-03-16T08:27:23Z</time>
      </trkpt>
      <trkpt lat="48.59274" lon="1.72565">
        <ele>129</ele>
        <time>2023-03-16T08:27:31Z</time>
      </trkpt>
      <trkpt lat="48.59267" lon="1.72575">
        <ele>129.4</ele>
        <time>2023-03-16T08:27:39Z</time>
      </trkpt>
      <trkpt lat="48.59262" lon="1.72586">
        <ele>129.5</ele>
        <time>2023-03-16T08:27:49Z</time>
      </trkpt>
      <trkpt lat="48.59255" lon="1.72597">
        <ele>129.5</ele>
        <time>2023-03-16T08:27:58Z</time>
      </trkpt>
      <trkpt lat="48.59249" lon="1.72608">
        <ele>129.2</ele>
        <time>2023-03-16T08:28:04Z</time>
      </trkpt>
      <trkpt lat="48.59245" lon="1.7262">
        <ele>128.5</ele>
        <time>2023-03-16T08:28:10Z</time>
      </trkpt>
      <trkpt lat="48.59241" lon="1.72633">
        <ele>127.8</ele>
        <time>2023-03-16T08:28:17Z</time>
      </trkpt>
      <trkpt lat="48.59235" lon="1.72645">
        <ele>127.2</ele>
        <time>2023-03-16T08:28:24Z</time>
      </trkpt>
      <trkpt lat="48.59228" lon="1.72656">
        <ele>126.7</ele>
        <time>2023-03-16T08:28:31Z</time>
      </trkpt>
      <trkpt lat="48.59222" lon="1.72668">
        <ele>126</ele>
        <time>2023-03-16T08:28:37Z</time>
      </trkpt>
      <trkpt lat="48.59215" lon="1.7268">
        <ele>126.1</ele>
        <time>2023-03-16T08:28:43Z</time>
      </trkpt>
      <trkpt lat="48.5921" lon="1.72693">
        <ele>126</ele>
        <time>2023-03-16T08:28:49Z</time>
      </trkpt>
      <trkpt lat="48.59203" lon="1.72705">
        <ele>125.9</ele>
        <time>2023-03-16T08:28:57Z</time>
      </trkpt>
      <trkpt lat="48.59194" lon="1.72712">
        <ele>126</ele>
        <time>2023-03-16T08:29:04Z</time>
      </trkpt>
      <trkpt lat="48.59185" lon="1.72715">
        <ele>126.3</ele>
        <time>2023-03-16T08:29:11Z</time>
      </trkpt>
      <trkpt lat="48.59176" lon="1.72721">
        <ele>126.6</ele>
        <time>2023-03-16T08:29:17Z</time>
      </trkpt>
      <trkpt lat="48.59167" lon="1.72727">
        <ele>127</ele>
        <time>2023-03-16T08:29:25Z</time>
      </trkpt>
      <trkpt lat="48.59159" lon="1.72734">
        <ele>128.3</ele>
        <time>2023-03-16T08:29:32Z</time>
      </trkpt>
      <trkpt lat="48.59151" lon="1.7274">
        <ele>129.3</ele>
        <time>2023-03-16T08:29:40Z</time>
      </trkpt>
      <trkpt lat="48.59146" lon="1.72753">
        <ele>129.2</ele>
        <time>2023-03-16T08:29:48Z</time>
      </trkpt>
      <trkpt lat="48.59143" lon="1.72767">
        <ele>129.5</ele>
        <time>2023-03-16T08:29:54Z</time>
      </trkpt>
      <trkpt lat="48.59142" lon="1.72781">
        <ele>129.7</ele>
        <time>2023-03-16T08:30:01Z</time>
      </trkpt>
      <trkpt lat="48.59141" lon="1.72795">
        <ele>129.8</ele>
        <time>2023-03-16T08:30:08Z</time>
      </trkpt>
      <trkpt lat="48.59139" lon="1.72809">
        <ele>130</ele>
        <time>2023-03-16T08:30:15Z</time>
      </trkpt>
      <trkpt lat="48.59136" lon="1.72822">
        <ele>130.8</ele>
        <time>2023-03-16T08:30:21Z</time>
      </trkpt>
      <trkpt lat="48.59133" lon="1.72836">
        <ele>131.2</ele>
        <time>2023-03-16T08:30:27Z</time>
      </trkpt>
      <trkpt lat="48.59128" lon="1.72849">
        <ele>132.3</ele>
        <time>2023-03-16T08:30:34Z</time>
      </trkpt>
      <trkpt lat="48.59126" lon="1.72864">
        <ele>132.7</ele>
        <time>2023-03-16T08:30:41Z</time>
      </trkpt>
      <trkpt lat="48.59127" lon="1.72879">
        <ele>132.2</ele>
        <time>2023-03-16T08:30:48Z</time>
      </trkpt>
      <trkpt lat="48.59128" lon="1.72894">
        <ele>131.8</ele>
        <time>2023-03-16T08:30:55Z</time>
      </trkpt>
      <trkpt lat="48.59128" lon="1.7291">
        <ele>131.7</ele>
        <time>2023-03-16T08:31:02Z</time>
      </trkpt>
      <trkpt lat="48.59127" lon="1.72924">
        <ele>131.7</ele>
        <time>2023-03-16T08:31:08Z</time>
      </trkpt>
      <trkpt lat="48.59125" lon="1.72939">
        <ele>131.6</ele>
        <time>2023-03-16T08:31:15Z</time>
      </trkpt>
      <trkpt lat="48.59123" lon="1.72954">
        <ele>131.4</ele>
        <time>2023-03-16T08:31:22Z</time>
      </trkpt>
      <trkpt lat="48.59119" lon="1.72967">
        <ele>131.3</ele>
        <time>2023-03-16T08:31:28Z</time>
      </trkpt>
      <trkpt lat="48.59111" lon="1.72972">
        <ele>132.1</ele>
        <time>2023-03-16T08:31:35Z</time>
      </trkpt>
      <trkpt lat="48.59101" lon="1.72973">
        <ele>133.1</ele>
        <time>2023-03-16T08:31:43Z</time>
      </trkpt>
      <trkpt lat="48.5909" lon="1.72971">
        <ele>134.3</ele>
        <time>2023-03-16T08:31:51Z</time>
      </trkpt>
      <trkpt lat="48.59081" lon="1.72967">
        <ele>135.6</ele>
        <time>2023-03-16T08:31:57Z</time>
      </trkpt>
      <trkpt lat="48.59073" lon="1.72972">
        <ele>136.1</ele>
        <time>2023-03-16T08:32:07Z</time>
      </trkpt>
      <trkpt lat="48.59066" lon="1.72983">
        <ele>136.5</ele>
        <time>2023-03-16T08:32:14Z</time>
      </trkpt>
      <trkpt lat="48.5906" lon="1.72997">
        <ele>136.6</ele>
        <time>2023-03-16T08:32:21Z</time>
      </trkpt>
      <trkpt lat="48.59055" lon="1.73009">
        <ele>136.7</ele>
        <time>2023-03-16T08:32:30Z</time>
      </trkpt>
      <trkpt lat="48.59051" lon="1.73023">
        <ele>136.6</ele>
        <time>2023-03-16T08:32:37Z</time>
      </trkpt>
      <trkpt lat="48.59048" lon="1.73036">
        <ele>136.4</ele>
        <time>2023-03-16T08:32:44Z</time>
      </trkpt>
      <trkpt lat="48.59047" lon="1.7305">
        <ele>135.9</ele>
        <time>2023-03-16T08:32:51Z</time>
      </trkpt>
      <trkpt lat="48.59048" lon="1.73064">
        <ele>135.2</ele>
        <time>2023-03-16T08:33:00Z</time>
      </trkpt>
      <trkpt lat="48.59046" lon="1.73078">
        <ele>134.9</ele>
        <time>2023-03-16T08:33:15Z</time>
      </trkpt>
      <trkpt lat="48.59045" lon="1.73093">
        <ele>134</ele>
        <time>2023-03-16T08:33:24Z</time>
      </trkpt>
      <trkpt lat="48.59046" lon="1.73108">
        <ele>132.9</ele>
        <time>2023-03-16T08:33:32Z</time>
      </trkpt>
      <trkpt lat="48.59047" lon="1.73122">
        <ele>132.1</ele>
        <time>2023-03-16T08:33:41Z</time>
      </trkpt>
      <trkpt lat="48.59052" lon="1.73134">
        <ele>131.4</ele>
        <time>2023-03-16T08:33:49Z</time>
      </trkpt>
      <trkpt lat="48.5905" lon="1.73148">
        <ele>130.8</ele>
        <time>2023-03-16T08:33:55Z</time>
      </trkpt>
      <trkpt lat="48.59046" lon="1.73162">
        <ele>130.6</ele>
        <time>2023-03-16T08:34:01Z</time>
      </trkpt>
      <trkpt lat="48.59036" lon="1.73161">
        <ele>131.8</ele>
        <time>2023-03-16T08:34:18Z</time>
      </trkpt>
      <trkpt lat="48.59027" lon="1.73167">
        <ele>133.2</ele>
        <time>2023-03-16T08:34:28Z</time>
      </trkpt>
      <trkpt lat="48.59019" lon="1.73175">
        <ele>134.6</ele>
        <time>2023-03-16T08:34:42Z</time>
      </trkpt>
      <trkpt lat="48.59009" lon="1.73176">
        <ele>136.7</ele>
        <time>2023-03-16T08:34:55Z</time>
      </trkpt>
      <trkpt lat="48.58999" lon="1.73173">
        <ele>138.5</ele>
        <time>2023-03-16T08:35:04Z</time>
      </trkpt>
      <trkpt lat="48.58991" lon="1.73166">
        <ele>139.2</ele>
        <time>2023-03-16T08:35:13Z</time>
      </trkpt>
      <trkpt lat="48.58982" lon="1.7316">
        <ele>140</ele>
        <time>2023-03-16T08:35:23Z</time>
      </trkpt>
      <trkpt lat="48.58974" lon="1.73154">
        <ele>140.9</ele>
        <time>2023-03-16T08:35:30Z</time>
      </trkpt>
      <trkpt lat="48.58966" lon="1.73147">
        <ele>141</ele>
        <time>2023-03-16T08:35:36Z</time>
      </trkpt>
      <trkpt lat="48.58957" lon="1.73141">
        <ele>141.3</ele>
        <time>2023-03-16T08:35:43Z</time>
      </trkpt>
      <trkpt lat="48.58948" lon="1.73137">
        <ele>141.6</ele>
        <time>2023-03-16T08:35:50Z</time>
      </trkpt>
      <trkpt lat="48.58939" lon="1.7313">
        <ele>141.7</ele>
        <time>2023-03-16T08:35:57Z</time>
      </trkpt>
      <trkpt lat="48.5893" lon="1.73123">
        <ele>141.9</ele>
        <time>2023-03-16T08:36:04Z</time>
      </trkpt>
      <trkpt lat="48.58921" lon="1.73122">
        <ele>142.6</ele>
        <time>2023-03-16T08:36:15Z</time>
      </trkpt>
      <trkpt lat="48.58917" lon="1.73135">
        <ele>143</ele>
        <time>2023-03-16T08:36:22Z</time>
      </trkpt>
      <trkpt lat="48.58912" lon="1.73147">
        <ele>143.6</ele>
        <time>2023-03-16T08:36:30Z</time>
      </trkpt>
      <trkpt lat="48.58908" lon="1.73162">
        <ele>144.2</ele>
        <time>2023-03-16T08:36:38Z</time>
      </trkpt>
      <trkpt lat="48.58904" lon="1.73175">
        <ele>144.7</ele>
        <time>2023-03-16T08:36:46Z</time>
      </trkpt>
      <trkpt lat="48.58899" lon="1.73188">
        <ele>145.4</ele>
        <time>2023-03-16T08:36:56Z</time>
      </trkpt>
      <trkpt lat="48.58896" lon="1.73201">
        <ele>145.8</ele>
        <time>2023-03-16T08:37:05Z</time>
      </trkpt>
      <trkpt lat="48.58891" lon="1.73214">
        <ele>145.9</ele>
        <time>2023-03-16T08:37:14Z</time>
      </trkpt>
      <trkpt lat="48.58887" lon="1.73227">
        <ele>145.8</ele>
        <time>2023-03-16T08:37:22Z</time>
      </trkpt>
      <trkpt lat="48.58882" lon="1.73241">
        <ele>145.2</ele>
        <time>2023-03-16T08:37:29Z</time>
      </trkpt>
      <trkpt lat="48.58877" lon="1.73253">
        <ele>145.1</ele>
        <time>2023-03-16T08:37:35Z</time>
      </trkpt>
      <trkpt lat="48.58873" lon="1.73266">
        <ele>145.1</ele>
        <time>2023-03-16T08:37:41Z</time>
      </trkpt>
      <trkpt lat="48.58869" lon="1.73278">
        <ele>145.3</ele>
        <time>2023-03-16T08:37:48Z</time>
      </trkpt>
      <trkpt lat="48.58865" lon="1.73292">
        <ele>146.2</ele>
        <time>2023-03-16T08:37:55Z</time>
      </trkpt>
      <trkpt lat="48.58861" lon="1.73304">
        <ele>147</ele>
        <time>2023-03-16T08:38:01Z</time>
      </trkpt>
      <trkpt lat="48.58856" lon="1.73317">
        <ele>146.9</ele>
        <time>2023-03-16T08:38:08Z</time>
      </trkpt>
      <trkpt lat="48.58852" lon="1.7333">
        <ele>146.8</ele>
        <time>2023-03-16T08:38:15Z</time>
      </trkpt>
      <trkpt lat="48.58847" lon="1.73344">
        <ele>146.8</ele>
        <time>2023-03-16T08:38:21Z</time>
      </trkpt>
      <trkpt lat="48.58843" lon="1.73358">
        <ele>147</ele>
        <time>2023-03-16T08:38:28Z</time>
      </trkpt>
      <trkpt lat="48.58839" lon="1.73372">
        <ele>147.1</ele>
        <time>2023-03-16T08:38:35Z</time>
      </trkpt>
      <trkpt lat="48.58838" lon="1.73387">
        <ele>147</ele>
        <time>2023-03-16T08:38:41Z</time>
      </trkpt>
      <trkpt lat="48.58841" lon="1.734">
        <ele>146.5</ele>
        <time>2023-03-16T08:38:48Z</time>
      </trkpt>
      <trkpt lat="48.58845" lon="1.73414">
        <ele>145.9</ele>
        <time>2023-03-16T08:38:56Z</time>
      </trkpt>
      <trkpt lat="48.58851" lon="1.73425">
        <ele>145.1</ele>
        <time>2023-03-16T08:39:05Z</time>
      </trkpt>
      <trkpt lat="48.58857" lon="1.73435">
        <ele>144.8</ele>
        <time>2023-03-16T08:39:13Z</time>
      </trkpt>
      <trkpt lat="48.58864" lon="1.73443">
        <ele>144.7</ele>
        <time>2023-03-16T08:39:20Z</time>
      </trkpt>
      <trkpt lat="48.58873" lon="1.73447">
        <ele>144.3</ele>
        <time>2023-03-16T08:39:27Z</time>
      </trkpt>
      <trkpt lat="48.58881" lon="1.73454">
        <ele>144.1</ele>
        <time>2023-03-16T08:39:34Z</time>
      </trkpt>
      <trkpt lat="48.5889" lon="1.7346">
        <ele>143.8</ele>
        <time>2023-03-16T08:39:42Z</time>
      </trkpt>
      <trkpt lat="48.58891" lon="1.73474">
        <ele>144.2</ele>
        <time>2023-03-16T08:39:52Z</time>
      </trkpt>
      <trkpt lat="48.5889" lon="1.73488">
        <ele>143.3</ele>
        <time>2023-03-16T08:40:00Z</time>
      </trkpt>
      <trkpt lat="48.58889" lon="1.73503">
        <ele>142.9</ele>
        <time>2023-03-16T08:40:08Z</time>
      </trkpt>
      <trkpt lat="48.58888" lon="1.73516">
        <ele>143.1</ele>
        <time>2023-03-16T08:40:15Z</time>
      </trkpt>
      <trkpt lat="48.58884" lon="1.7353">
        <ele>143.3</ele>
        <time>2023-03-16T08:40:21Z</time>
      </trkpt>
      <trkpt lat="48.58881" lon="1.73545">
        <ele>144.2</ele>
        <time>2023-03-16T08:40:27Z</time>
      </trkpt>
      <trkpt lat="48.58876" lon="1.73558">
        <ele>144.2</ele>
        <time>2023-03-16T08:40:34Z</time>
      </trkpt>
      <trkpt lat="48.58874" lon="1.73573">
        <ele>142.4</ele>
        <time>2023-03-16T08:40:41Z</time>
      </trkpt>
      <trkpt lat="48.58871" lon="1.73586">
        <ele>141.7</ele>
        <time>2023-03-16T08:40:47Z</time>
      </trkpt>
      <trkpt lat="48.58866" lon="1.736">
        <ele>142.9</ele>
        <time>2023-03-16T08:40:54Z</time>
      </trkpt>
      <trkpt lat="48.58861" lon="1.73612">
        <ele>144</ele>
        <time>2023-03-16T08:41:01Z</time>
      </trkpt>
      <trkpt lat="48.58857" lon="1.73625">
        <ele>143.9</ele>
        <time>2023-03-16T08:41:08Z</time>
      </trkpt>
      <trkpt lat="48.58852" lon="1.73637">
        <ele>144.3</ele>
        <time>2023-03-16T08:41:14Z</time>
      </trkpt>
      <trkpt lat="48.58848" lon="1.73649">
        <ele>144.4</ele>
        <time>2023-03-16T08:41:22Z</time>
      </trkpt>
      <trkpt lat="48.58841" lon="1.7366">
        <ele>144.2</ele>
        <time>2023-03-16T08:41:29Z</time>
      </trkpt>
      <trkpt lat="48.58836" lon="1.73673">
        <ele>143.4</ele>
        <time>2023-03-16T08:41:38Z</time>
      </trkpt>
      <trkpt lat="48.58829" lon="1.73682">
        <ele>143.2</ele>
        <time>2023-03-16T08:41:45Z</time>
      </trkpt>
      <trkpt lat="48.58821" lon="1.73691">
        <ele>143.1</ele>
        <time>2023-03-16T08:41:53Z</time>
      </trkpt>
      <trkpt lat="48.58813" lon="1.73699">
        <ele>143.3</ele>
        <time>2023-03-16T08:42:02Z</time>
      </trkpt>
      <trkpt lat="48.58805" lon="1.73706">
        <ele>144</ele>
        <time>2023-03-16T08:42:09Z</time>
      </trkpt>
      <trkpt lat="48.58797" lon="1.73715">
        <ele>143.8</ele>
        <time>2023-03-16T08:42:15Z</time>
      </trkpt>
      <trkpt lat="48.58789" lon="1.73727">
        <ele>143.2</ele>
        <time>2023-03-16T08:42:21Z</time>
      </trkpt>
      <trkpt lat="48.58782" lon="1.73735">
        <ele>143.3</ele>
        <time>2023-03-16T08:42:27Z</time>
      </trkpt>
      <trkpt lat="48.58774" lon="1.73745">
        <ele>143.8</ele>
        <time>2023-03-16T08:42:34Z</time>
      </trkpt>
      <trkpt lat="48.58765" lon="1.73751">
        <ele>143.9</ele>
        <time>2023-03-16T08:42:41Z</time>
      </trkpt>
      <trkpt lat="48.58755" lon="1.73753">
        <ele>143.6</ele>
        <time>2023-03-16T08:42:47Z</time>
      </trkpt>
      <trkpt lat="48.58746" lon="1.73754">
        <ele>143.7</ele>
        <time>2023-03-16T08:42:53Z</time>
      </trkpt>
      <trkpt lat="48.58737" lon="1.73757">
        <ele>144</ele>
        <time>2023-03-16T08:43:00Z</time>
      </trkpt>
      <trkpt lat="48.58728" lon="1.7376">
        <ele>144.3</ele>
        <time>2023-03-16T08:43:08Z</time>
      </trkpt>
      <trkpt lat="48.58719" lon="1.73764">
        <ele>144.7</ele>
        <time>2023-03-16T08:43:16Z</time>
      </trkpt>
      <trkpt lat="48.58709" lon="1.7377">
        <ele>144.9</ele>
        <time>2023-03-16T08:43:23Z</time>
      </trkpt>
      <trkpt lat="48.58699" lon="1.73774">
        <ele>145.1</ele>
        <time>2023-03-16T08:43:30Z</time>
      </trkpt>
      <trkpt lat="48.58691" lon="1.7378">
        <ele>145.1</ele>
        <time>2023-03-16T08:43:36Z</time>
      </trkpt>
      <trkpt lat="48.58682" lon="1.73785">
        <ele>145.5</ele>
        <time>2023-03-16T08:43:44Z</time>
      </trkpt>
      <trkpt lat="48.58673" lon="1.7379">
        <ele>145.6</ele>
        <time>2023-03-16T08:43:51Z</time>
      </trkpt>
      <trkpt lat="48.58665" lon="1.73797">
        <ele>145.6</ele>
        <time>2023-03-16T08:43:57Z</time>
      </trkpt>
      <trkpt lat="48.58657" lon="1.73801">
        <ele>145.4</ele>
        <time>2023-03-16T08:44:04Z</time>
      </trkpt>
      <trkpt lat="48.58648" lon="1.73809">
        <ele>144.9</ele>
        <time>2023-03-16T08:44:12Z</time>
      </trkpt>
      <trkpt lat="48.58639" lon="1.73815">
        <ele>145</ele>
        <time>2023-03-16T08:44:18Z</time>
      </trkpt>
      <trkpt lat="48.58629" lon="1.7382">
        <ele>144.8</ele>
        <time>2023-03-16T08:44:24Z</time>
      </trkpt>
      <trkpt lat="48.58619" lon="1.7382">
        <ele>145.2</ele>
        <time>2023-03-16T08:44:30Z</time>
      </trkpt>
      <trkpt lat="48.58609" lon="1.73823">
        <ele>145.5</ele>
        <time>2023-03-16T08:44:36Z</time>
      </trkpt>
      <trkpt lat="48.586" lon="1.73826">
        <ele>145.8</ele>
        <time>2023-03-16T08:44:42Z</time>
      </trkpt>
      <trkpt lat="48.5859" lon="1.73828">
        <ele>146.1</ele>
        <time>2023-03-16T08:44:50Z</time>
      </trkpt>
      <trkpt lat="48.5858" lon="1.73833">
        <ele>146</ele>
        <time>2023-03-16T08:44:57Z</time>
      </trkpt>
      <trkpt lat="48.5857" lon="1.73837">
        <ele>145</ele>
        <time>2023-03-16T08:45:02Z</time>
      </trkpt>
      <trkpt lat="48.58561" lon="1.73841">
        <ele>144.6</ele>
        <time>2023-03-16T08:45:07Z</time>
      </trkpt>
      <trkpt lat="48.58551" lon="1.73844">
        <ele>144.7</ele>
        <time>2023-03-16T08:45:13Z</time>
      </trkpt>
      <trkpt lat="48.58541" lon="1.7385">
        <ele>144.5</ele>
        <time>2023-03-16T08:45:19Z</time>
      </trkpt>
      <trkpt lat="48.58531" lon="1.73853">
        <ele>144.6</ele>
        <time>2023-03-16T08:45:25Z</time>
      </trkpt>
      <trkpt lat="48.58521" lon="1.73854">
        <ele>145.2</ele>
        <time>2023-03-16T08:45:32Z</time>
      </trkpt>
      <trkpt lat="48.58513" lon="1.73859">
        <ele>145.3</ele>
        <time>2023-03-16T08:45:40Z</time>
      </trkpt>
      <trkpt lat="48.58505" lon="1.73867">
        <ele>144.7</ele>
        <time>2023-03-16T08:45:47Z</time>
      </trkpt>
      <trkpt lat="48.58498" lon="1.73877">
        <ele>143.6</ele>
        <time>2023-03-16T08:45:55Z</time>
      </trkpt>
      <trkpt lat="48.58491" lon="1.73888">
        <ele>142.1</ele>
        <time>2023-03-16T08:46:01Z</time>
      </trkpt>
      <trkpt lat="48.58484" lon="1.73898">
        <ele>140.6</ele>
        <time>2023-03-16T08:46:08Z</time>
      </trkpt>
      <trkpt lat="48.58479" lon="1.7391">
        <ele>139.5</ele>
        <time>2023-03-16T08:46:16Z</time>
      </trkpt>
      <trkpt lat="48.58472" lon="1.73919">
        <ele>139.8</ele>
        <time>2023-03-16T08:46:23Z</time>
      </trkpt>
      <trkpt lat="48.58467" lon="1.73933">
        <ele>138.6</ele>
        <time>2023-03-16T08:46:30Z</time>
      </trkpt>
      <trkpt lat="48.58463" lon="1.73947">
        <ele>137</ele>
        <time>2023-03-16T08:46:37Z</time>
      </trkpt>
      <trkpt lat="48.58459" lon="1.7396">
        <ele>135.2</ele>
        <time>2023-03-16T08:46:44Z</time>
      </trkpt>
      <trkpt lat="48.58458" lon="1.73974">
        <ele>133.5</ele>
        <time>2023-03-16T08:46:50Z</time>
      </trkpt>
      <trkpt lat="48.58459" lon="1.73989">
        <ele>133.7</ele>
        <time>2023-03-16T08:46:56Z</time>
      </trkpt>
      <trkpt lat="48.5846" lon="1.74003">
        <ele>133.6</ele>
        <time>2023-03-16T08:47:02Z</time>
      </trkpt>
      <trkpt lat="48.58461" lon="1.74017">
        <ele>133.2</ele>
        <time>2023-03-16T08:47:10Z</time>
      </trkpt>
      <trkpt lat="48.58467" lon="1.74029">
        <ele>132</ele>
        <time>2023-03-16T08:47:17Z</time>
      </trkpt>
      <trkpt lat="48.58477" lon="1.74035">
        <ele>131.4</ele>
        <time>2023-03-16T08:47:23Z</time>
      </trkpt>
      <trkpt lat="48.58485" lon="1.74043">
        <ele>131.4</ele>
        <time>2023-03-16T08:47:30Z</time>
      </trkpt>
      <trkpt lat="48.58492" lon="1.74052">
        <ele>131.4</ele>
        <time>2023-03-16T08:47:39Z</time>
      </trkpt>
      <trkpt lat="48.58502" lon="1.74058">
        <ele>131</ele>
        <time>2023-03-16T08:47:46Z</time>
      </trkpt>
      <trkpt lat="48.58509" lon="1.74067">
        <ele>131.1</ele>
        <time>2023-03-16T08:47:53Z</time>
      </trkpt>
      <trkpt lat="48.58512" lon="1.7408">
        <ele>131.5</ele>
        <time>2023-03-16T08:48:00Z</time>
      </trkpt>
      <trkpt lat="48.58509" lon="1.74094">
        <ele>131.9</ele>
        <time>2023-03-16T08:48:08Z</time>
      </trkpt>
      <trkpt lat="48.58513" lon="1.74106">
        <ele>132</ele>
        <time>2023-03-16T08:48:16Z</time>
      </trkpt>
      <trkpt lat="48.58504" lon="1.74112">
        <ele>132.7</ele>
        <time>2023-03-16T08:48:24Z</time>
      </trkpt>
      <trkpt lat="48.58494" lon="1.74115">
        <ele>133.4</ele>
        <time>2023-03-16T08:48:30Z</time>
      </trkpt>
      <trkpt lat="48.58485" lon="1.74116">
        <ele>134.2</ele>
        <time>2023-03-16T08:48:37Z</time>
      </trkpt>
      <trkpt lat="48.58475" lon="1.74116">
        <ele>135</ele>
        <time>2023-03-16T08:48:44Z</time>
      </trkpt>
      <trkpt lat="48.58467" lon="1.74125">
        <ele>136.3</ele>
        <time>2023-03-16T08:48:52Z</time>
      </trkpt>
      <trkpt lat="48.58466" lon="1.74139">
        <ele>137.1</ele>
        <time>2023-03-16T08:49:07Z</time>
      </trkpt>
      <trkpt lat="48.58465" lon="1.74153">
        <ele>138</ele>
        <time>2023-03-16T08:49:16Z</time>
      </trkpt>
      <trkpt lat="48.58463" lon="1.74167">
        <ele>139</ele>
        <time>2023-03-16T08:49:23Z</time>
      </trkpt>
      <trkpt lat="48.58459" lon="1.74182">
        <ele>139.1</ele>
        <time>2023-03-16T08:49:30Z</time>
      </trkpt>
      <trkpt lat="48.58457" lon="1.74196">
        <ele>139.1</ele>
        <time>2023-03-16T08:49:37Z</time>
      </trkpt>
      <trkpt lat="48.58458" lon="1.7421">
        <ele>138.2</ele>
        <time>2023-03-16T08:49:45Z</time>
      </trkpt>
      <trkpt lat="48.58458" lon="1.74224">
        <ele>137.6</ele>
        <time>2023-03-16T08:49:53Z</time>
      </trkpt>
      <trkpt lat="48.58463" lon="1.74236">
        <ele>137.1</ele>
        <time>2023-03-16T08:50:00Z</time>
      </trkpt>
      <trkpt lat="48.58466" lon="1.7425">
        <ele>137.1</ele>
        <time>2023-03-16T08:50:07Z</time>
      </trkpt>
      <trkpt lat="48.58469" lon="1.74264">
        <ele>137.7</ele>
        <time>2023-03-16T08:50:14Z</time>
      </trkpt>
      <trkpt lat="48.58469" lon="1.7428">
        <ele>138.7</ele>
        <time>2023-03-16T08:50:21Z</time>
      </trkpt>
      <trkpt lat="48.58472" lon="1.74293">
        <ele>139.2</ele>
        <time>2023-03-16T08:50:28Z</time>
      </trkpt>
      <trkpt lat="48.58474" lon="1.74307">
        <ele>139.8</ele>
        <time>2023-03-16T08:50:36Z</time>
      </trkpt>
      <trkpt lat="48.58472" lon="1.74323">
        <ele>140.6</ele>
        <time>2023-03-16T08:50:45Z</time>
      </trkpt>
      <trkpt lat="48.58473" lon="1.74337">
        <ele>141</ele>
        <time>2023-03-16T08:50:52Z</time>
      </trkpt>
      <trkpt lat="48.58474" lon="1.7435">
        <ele>141.4</ele>
        <time>2023-03-16T08:50:59Z</time>
      </trkpt>
      <trkpt lat="48.58472" lon="1.74366">
        <ele>142.2</ele>
        <time>2023-03-16T08:51:05Z</time>
      </trkpt>
      <trkpt lat="48.58469" lon="1.74381">
        <ele>142.8</ele>
        <time>2023-03-16T08:51:11Z</time>
      </trkpt>
      <trkpt lat="48.58468" lon="1.74394">
        <ele>143.3</ele>
        <time>2023-03-16T08:51:19Z</time>
      </trkpt>
      <trkpt lat="48.58467" lon="1.74408">
        <ele>143.9</ele>
        <time>2023-03-16T08:51:26Z</time>
      </trkpt>
      <trkpt lat="48.58466" lon="1.74423">
        <ele>144.7</ele>
        <time>2023-03-16T08:51:34Z</time>
      </trkpt>
      <trkpt lat="48.58463" lon="1.74438">
        <ele>145.9</ele>
        <time>2023-03-16T08:51:43Z</time>
      </trkpt>
      <trkpt lat="48.58461" lon="1.74452">
        <ele>146.5</ele>
        <time>2023-03-16T08:51:53Z</time>
      </trkpt>
      <trkpt lat="48.58459" lon="1.74466">
        <ele>146.8</ele>
        <time>2023-03-16T08:52:02Z</time>
      </trkpt>
      <trkpt lat="48.58458" lon="1.74479">
        <ele>147.3</ele>
        <time>2023-03-16T08:52:10Z</time>
      </trkpt>
      <trkpt lat="48.58458" lon="1.74495">
        <ele>147.8</ele>
        <time>2023-03-16T08:52:18Z</time>
      </trkpt>
      <trkpt lat="48.58456" lon="1.74508">
        <ele>148.2</ele>
        <time>2023-03-16T08:52:25Z</time>
      </trkpt>
      <trkpt lat="48.58457" lon="1.74522">
        <ele>148.5</ele>
        <time>2023-03-16T08:52:34Z</time>
      </trkpt>
      <trkpt lat="48.58455" lon="1.74537">
        <ele>149</ele>
        <time>2023-03-16T08:52:42Z</time>
      </trkpt>
      <trkpt lat="48.58453" lon="1.74551">
        <ele>149.5</ele>
        <time>2023-03-16T08:52:48Z</time>
      </trkpt>
      <trkpt lat="48.58453" lon="1.74567">
        <ele>149.8</ele>
        <time>2023-03-16T08:52:54Z</time>
      </trkpt>
      <trkpt lat="48.58452" lon="1.74582">
        <ele>150</ele>
        <time>2023-03-16T08:53:01Z</time>
      </trkpt>
      <trkpt lat="48.58452" lon="1.74596">
        <ele>150.3</ele>
        <time>2023-03-16T08:53:07Z</time>
      </trkpt>
      <trkpt lat="48.5845" lon="1.7461">
        <ele>150.8</ele>
        <time>2023-03-16T08:53:11Z</time>
      </trkpt>
      <trkpt lat="48.58448" lon="1.74626">
        <ele>151.3</ele>
        <time>2023-03-16T08:53:17Z</time>
      </trkpt>
      <trkpt lat="48.58448" lon="1.74641">
        <ele>151.8</ele>
        <time>2023-03-16T08:53:25Z</time>
      </trkpt>
      <trkpt lat="48.58447" lon="1.74656">
        <ele>151.9</ele>
        <time>2023-03-16T08:53:31Z</time>
      </trkpt>
      <trkpt lat="48.58446" lon="1.7467">
        <ele>152</ele>
        <time>2023-03-16T08:53:36Z</time>
      </trkpt>
      <trkpt lat="48.58445" lon="1.74684">
        <ele>152</ele>
        <time>2023-03-16T08:53:42Z</time>
      </trkpt>
      <trkpt lat="48.58444" lon="1.74697">
        <ele>152</ele>
        <time>2023-03-16T08:53:49Z</time>
      </trkpt>
      <trkpt lat="48.58443" lon="1.74712">
        <ele>152</ele>
        <time>2023-03-16T08:53:56Z</time>
      </trkpt>
      <trkpt lat="48.58443" lon="1.74727">
        <ele>152.1</ele>
        <time>2023-03-16T08:54:04Z</time>
      </trkpt>
      <trkpt lat="48.58442" lon="1.74742">
        <ele>152.1</ele>
        <time>2023-03-16T08:54:11Z</time>
      </trkpt>
      <trkpt lat="48.5844" lon="1.74757">
        <ele>152.2</ele>
        <time>2023-03-16T08:54:17Z</time>
      </trkpt>
      <trkpt lat="48.5844" lon="1.74771">
        <ele>152.2</ele>
        <time>2023-03-16T08:54:25Z</time>
      </trkpt>
      <trkpt lat="48.58441" lon="1.74786">
        <ele>151.9</ele>
        <time>2023-03-16T08:54:32Z</time>
      </trkpt>
      <trkpt lat="48.58441" lon="1.74801">
        <ele>151.4</ele>
        <time>2023-03-16T08:54:39Z</time>
      </trkpt>
      <trkpt lat="48.58441" lon="1.74816">
        <ele>150.9</ele>
        <time>2023-03-16T08:54:46Z</time>
      </trkpt>
      <trkpt lat="48.5844" lon="1.74831">
        <ele>150.5</ele>
        <time>2023-03-16T08:54:53Z</time>
      </trkpt>
      <trkpt lat="48.58436" lon="1.74847">
        <ele>150.4</ele>
        <time>2023-03-16T08:54:58Z</time>
      </trkpt>
      <trkpt lat="48.58436" lon="1.74862">
        <ele>149.9</ele>
        <time>2023-03-16T08:55:04Z</time>
      </trkpt>
      <trkpt lat="48.58434" lon="1.74876">
        <ele>149.8</ele>
        <time>2023-03-16T08:55:12Z</time>
      </trkpt>
      <trkpt lat="48.5843" lon="1.74891">
        <ele>150.1</ele>
        <time>2023-03-16T08:55:18Z</time>
      </trkpt>
      <trkpt lat="48.58431" lon="1.74904">
        <ele>149.9</ele>
        <time>2023-03-16T08:55:24Z</time>
      </trkpt>
      <trkpt lat="48.58433" lon="1.74919">
        <ele>149.5</ele>
        <time>2023-03-16T08:55:32Z</time>
      </trkpt>
      <trkpt lat="48.58434" lon="1.74933">
        <ele>148.8</ele>
        <time>2023-03-16T08:55:41Z</time>
      </trkpt>
      <trkpt lat="48.58433" lon="1.74947">
        <ele>148.4</ele>
        <time>2023-03-16T08:55:47Z</time>
      </trkpt>
      <trkpt lat="48.58431" lon="1.74961">
        <ele>147.4</ele>
        <time>2023-03-16T08:55:52Z</time>
      </trkpt>
      <trkpt lat="48.58431" lon="1.74976">
        <ele>146.4</ele>
        <time>2023-03-16T08:55:58Z</time>
      </trkpt>
      <trkpt lat="48.58429" lon="1.74991">
        <ele>146</ele>
        <time>2023-03-16T08:56:05Z</time>
      </trkpt>
      <trkpt lat="48.58433" lon="1.75005">
        <ele>145.2</ele>
        <time>2023-03-16T08:56:10Z</time>
      </trkpt>
      <trkpt lat="48.58432" lon="1.75019">
        <ele>145</ele>
        <time>2023-03-16T08:56:18Z</time>
      </trkpt>
      <trkpt lat="48.58435" lon="1.75033">
        <ele>144.2</ele>
        <time>2023-03-16T08:56:28Z</time>
      </trkpt>
      <trkpt lat="48.58444" lon="1.7504">
        <ele>142.6</ele>
        <time>2023-03-16T08:56:37Z</time>
      </trkpt>
      <trkpt lat="48.58442" lon="1.75055">
        <ele>142.4</ele>
        <time>2023-03-16T08:56:44Z</time>
      </trkpt>
      <trkpt lat="48.58449" lon="1.75066">
        <ele>140.3</ele>
        <time>2023-03-16T08:56:53Z</time>
      </trkpt>
      <trkpt lat="48.58445" lon="1.75078">
        <ele>141.1</ele>
        <time>2023-03-16T08:56:59Z</time>
      </trkpt>
      <trkpt lat="48.58437" lon="1.75092">
        <ele>141.5</ele>
        <time>2023-03-16T08:57:03Z</time>
      </trkpt>
      <trkpt lat="48.58431" lon="1.75103">
        <ele>141.7</ele>
        <time>2023-03-16T08:57:06Z</time>
      </trkpt>
      <trkpt lat="48.58426" lon="1.75115">
        <ele>141.8</ele>
        <time>2023-03-16T08:57:10Z</time>
      </trkpt>
      <trkpt lat="48.58422" lon="1.75128">
        <ele>141.8</ele>
        <time>2023-03-16T08:57:15Z</time>
      </trkpt>
      <trkpt lat="48.5842" lon="1.75142">
        <ele>141.7</ele>
        <time>2023-03-16T08:57:20Z</time>
      </trkpt>
      <trkpt lat="48.58415" lon="1.75155">
        <ele>142.8</ele>
        <time>2023-03-16T08:57:26Z</time>
      </trkpt>
      <trkpt lat="48.58411" lon="1.75168">
        <ele>143.7</ele>
        <time>2023-03-16T08:57:32Z</time>
      </trkpt>
      <trkpt lat="48.58409" lon="1.75182">
        <ele>144.5</ele>
        <time>2023-03-16T08:57:38Z</time>
      </trkpt>
      <trkpt lat="48.58406" lon="1.75196">
        <ele>145</ele>
        <time>2023-03-16T08:57:44Z</time>
      </trkpt>
      <trkpt lat="48.58403" lon="1.75209">
        <ele>144.7</ele>
        <time>2023-03-16T08:57:51Z</time>
      </trkpt>
      <trkpt lat="48.58399" lon="1.75223">
        <ele>144</ele>
        <time>2023-03-16T08:58:00Z</time>
      </trkpt>
      <trkpt lat="48.58395" lon="1.75237">
        <ele>142.5</ele>
        <time>2023-03-16T08:58:12Z</time>
      </trkpt>
      <trkpt lat="48.58393" lon="1.7525">
        <ele>140.9</ele>
        <time>2023-03-16T08:58:21Z</time>
      </trkpt>
      <trkpt lat="48.58389" lon="1.75265">
        <ele>139.5</ele>
        <time>2023-03-16T08:58:28Z</time>
      </trkpt>
      <trkpt lat="48.58385" lon="1.75279">
        <ele>139.1</ele>
        <time>2023-03-16T08:58:32Z</time>
      </trkpt>
      <trkpt lat="48.58382" lon="1.75291">
        <ele>140</ele>
        <time>2023-03-16T08:58:37Z</time>
      </trkpt>
      <trkpt lat="48.58378" lon="1.75304">
        <ele>141.7</ele>
        <time>2023-03-16T08:58:43Z</time>
      </trkpt>
      <trkpt lat="48.58373" lon="1.75316">
        <ele>141.8</ele>
        <time>2023-03-16T08:58:50Z</time>
      </trkpt>
      <trkpt lat="48.5837" lon="1.7533">
        <ele>140.4</ele>
        <time>2023-03-16T08:58:57Z</time>
      </trkpt>
      <trkpt lat="48.58366" lon="1.75343">
        <ele>139.5</ele>
        <time>2023-03-16T08:59:05Z</time>
      </trkpt>
      <trkpt lat="48.5836" lon="1.75354">
        <ele>139.1</ele>
        <time>2023-03-16T08:59:15Z</time>
      </trkpt>
      <trkpt lat="48.58354" lon="1.75367">
        <ele>140.2</ele>
        <time>2023-03-16T08:59:21Z</time>
      </trkpt>
      <trkpt lat="48.58349" lon="1.75379">
        <ele>141.1</ele>
        <time>2023-03-16T08:59:29Z</time>
      </trkpt>
      <trkpt lat="48.58345" lon="1.75392">
        <ele>141.3</ele>
        <time>2023-03-16T08:59:35Z</time>
      </trkpt>
      <trkpt lat="48.58339" lon="1.75404">
        <ele>140.3</ele>
        <time>2023-03-16T08:59:42Z</time>
      </trkpt>
      <trkpt lat="48.58334" lon="1.75418">
        <ele>138.8</ele>
        <time>2023-03-16T08:59:48Z</time>
      </trkpt>
      <trkpt lat="48.58329" lon="1.75432">
        <ele>139.9</ele>
        <time>2023-03-16T08:59:54Z</time>
      </trkpt>
      <trkpt lat="48.58325" lon="1.75447">
        <ele>140.6</ele>
        <time>2023-03-16T09:00:00Z</time>
      </trkpt>
      <trkpt lat="48.58324" lon="1.75461">
        <ele>139.8</ele>
        <time>2023-03-16T09:00:06Z</time>
      </trkpt>
      <trkpt lat="48.58324" lon="1.75476">
        <ele>138.8</ele>
        <time>2023-03-16T09:00:13Z</time>
      </trkpt>
      <trkpt lat="48.58324" lon="1.7549">
        <ele>138.3</ele>
        <time>2023-03-16T09:00:19Z</time>
      </trkpt>
      <trkpt lat="48.58322" lon="1.75504">
        <ele>138.8</ele>
        <time>2023-03-16T09:00:26Z</time>
      </trkpt>
      <trkpt lat="48.58319" lon="1.75518">
        <ele>140</ele>
        <time>2023-03-16T09:00:32Z</time>
      </trkpt>
      <trkpt lat="48.58317" lon="1.75532">
        <ele>140.3</ele>
        <time>2023-03-16T09:00:38Z</time>
      </trkpt>
      <trkpt lat="48.58317" lon="1.75546">
        <ele>139.7</ele>
        <time>2023-03-16T09:00:44Z</time>
      </trkpt>
      <trkpt lat="48.58317" lon="1.75561">
        <ele>139.4</ele>
        <time>2023-03-16T09:00:51Z</time>
      </trkpt>
      <trkpt lat="48.58315" lon="1.75575">
        <ele>140.2</ele>
        <time>2023-03-16T09:00:58Z</time>
      </trkpt>
      <trkpt lat="48.58315" lon="1.75589">
        <ele>140.1</ele>
        <time>2023-03-16T09:01:05Z</time>
      </trkpt>
      <trkpt lat="48.5831" lon="1.75603">
        <ele>140.6</ele>
        <time>2023-03-16T09:01:12Z</time>
      </trkpt>
      <trkpt lat="48.58308" lon="1.75617">
        <ele>140.4</ele>
        <time>2023-03-16T09:01:18Z</time>
      </trkpt>
      <trkpt lat="48.58306" lon="1.75631">
        <ele>140.2</ele>
        <time>2023-03-16T09:01:24Z</time>
      </trkpt>
      <trkpt lat="48.58305" lon="1.75645">
        <ele>140</ele>
        <time>2023-03-16T09:01:31Z</time>
      </trkpt>
      <trkpt lat="48.58302" lon="1.7566">
        <ele>140.7</ele>
        <time>2023-03-16T09:01:38Z</time>
      </trkpt>
      <trkpt lat="48.58299" lon="1.75675">
        <ele>140.3</ele>
        <time>2023-03-16T09:01:46Z</time>
      </trkpt>
      <trkpt lat="48.58296" lon="1.75688">
        <ele>139</ele>
        <time>2023-03-16T09:01:53Z</time>
      </trkpt>
      <trkpt lat="48.58291" lon="1.75701">
        <ele>137.8</ele>
        <time>2023-03-16T09:02:00Z</time>
      </trkpt>
      <trkpt lat="48.58286" lon="1.75713">
        <ele>136.6</ele>
        <time>2023-03-16T09:02:07Z</time>
      </trkpt>
      <trkpt lat="48.58282" lon="1.75726">
        <ele>135.5</ele>
        <time>2023-03-16T09:02:15Z</time>
      </trkpt>
      <trkpt lat="48.58276" lon="1.75738">
        <ele>135.7</ele>
        <time>2023-03-16T09:02:21Z</time>
      </trkpt>
      <trkpt lat="48.58269" lon="1.75749">
        <ele>136.6</ele>
        <time>2023-03-16T09:02:27Z</time>
      </trkpt>
      <trkpt lat="48.58262" lon="1.75759">
        <ele>136.9</ele>
        <time>2023-03-16T09:02:34Z</time>
      </trkpt>
      <trkpt lat="48.58255" lon="1.75772">
        <ele>135.4</ele>
        <time>2023-03-16T09:02:41Z</time>
      </trkpt>
      <trkpt lat="48.58249" lon="1.75783">
        <ele>134.4</ele>
        <time>2023-03-16T09:02:47Z</time>
      </trkpt>
      <trkpt lat="48.58242" lon="1.75793">
        <ele>135.8</ele>
        <time>2023-03-16T09:02:54Z</time>
      </trkpt>
      <trkpt lat="48.58234" lon="1.758">
        <ele>136.5</ele>
        <time>2023-03-16T09:03:01Z</time>
      </trkpt>
      <trkpt lat="48.58226" lon="1.7581">
        <ele>135.9</ele>
        <time>2023-03-16T09:03:08Z</time>
      </trkpt>
      <trkpt lat="48.58219" lon="1.75818">
        <ele>136.5</ele>
        <time>2023-03-16T09:03:15Z</time>
      </trkpt>
      <trkpt lat="48.5821" lon="1.75828">
        <ele>137.6</ele>
        <time>2023-03-16T09:03:23Z</time>
      </trkpt>
      <trkpt lat="48.58205" lon="1.75841">
        <ele>136.9</ele>
        <time>2023-03-16T09:03:29Z</time>
      </trkpt>
      <trkpt lat="48.58201" lon="1.75854">
        <ele>135.6</ele>
        <time>2023-03-16T09:03:35Z</time>
      </trkpt>
      <trkpt lat="48.58197" lon="1.75867">
        <ele>134.5</ele>
        <time>2023-03-16T09:03:41Z</time>
      </trkpt>
      <trkpt lat="48.58192" lon="1.7588">
        <ele>134.6</ele>
        <time>2023-03-16T09:03:48Z</time>
      </trkpt>
      <trkpt lat="48.58186" lon="1.75892">
        <ele>135.8</ele>
        <time>2023-03-16T09:03:55Z</time>
      </trkpt>
      <trkpt lat="48.58179" lon="1.75904">
        <ele>136.7</ele>
        <time>2023-03-16T09:04:03Z</time>
      </trkpt>
      <trkpt lat="48.58177" lon="1.75919">
        <ele>135.3</ele>
        <time>2023-03-16T09:04:11Z</time>
      </trkpt>
      <trkpt lat="48.58174" lon="1.75933">
        <ele>134.6</ele>
        <time>2023-03-16T09:04:16Z</time>
      </trkpt>
      <trkpt lat="48.58168" lon="1.75944">
        <ele>134</ele>
        <time>2023-03-16T09:04:22Z</time>
      </trkpt>
      <trkpt lat="48.58163" lon="1.75957">
        <ele>135.7</ele>
        <time>2023-03-16T09:04:27Z</time>
      </trkpt>
      <trkpt lat="48.58158" lon="1.7597">
        <ele>137</ele>
        <time>2023-03-16T09:04:33Z</time>
      </trkpt>
      <trkpt lat="48.58154" lon="1.75983">
        <ele>137.6</ele>
        <time>2023-03-16T09:04:40Z</time>
      </trkpt>
      <trkpt lat="48.58149" lon="1.75995">
        <ele>138.1</ele>
        <time>2023-03-16T09:04:47Z</time>
      </trkpt>
      <trkpt lat="48.58147" lon="1.76008">
        <ele>138.7</ele>
        <time>2023-03-16T09:04:53Z</time>
      </trkpt>
      <trkpt lat="48.58149" lon="1.76021">
        <ele>138.8</ele>
        <time>2023-03-16T09:05:00Z</time>
      </trkpt>
      <trkpt lat="48.58154" lon="1.76034">
        <ele>138.1</ele>
        <time>2023-03-16T09:05:08Z</time>
      </trkpt>
      <trkpt lat="48.58156" lon="1.76048">
        <ele>138.4</ele>
        <time>2023-03-16T09:05:15Z</time>
      </trkpt>
      <trkpt lat="48.58158" lon="1.76063">
        <ele>138.4</ele>
        <time>2023-03-16T09:05:22Z</time>
      </trkpt>
      <trkpt lat="48.5816" lon="1.76078">
        <ele>138.3</ele>
        <time>2023-03-16T09:05:29Z</time>
      </trkpt>
      <trkpt lat="48.58165" lon="1.7609">
        <ele>137</ele>
        <time>2023-03-16T09:05:36Z</time>
      </trkpt>
      <trkpt lat="48.58167" lon="1.76103">
        <ele>136.7</ele>
        <time>2023-03-16T09:05:42Z</time>
      </trkpt>
      <trkpt lat="48.58173" lon="1.76116">
        <ele>137.4</ele>
        <time>2023-03-16T09:05:48Z</time>
      </trkpt>
      <trkpt lat="48.58178" lon="1.76128">
        <ele>138.4</ele>
        <time>2023-03-16T09:05:55Z</time>
      </trkpt>
      <trkpt lat="48.58186" lon="1.76135">
        <ele>137.9</ele>
        <time>2023-03-16T09:06:03Z</time>
      </trkpt>
      <trkpt lat="48.58195" lon="1.76131">
        <ele>136.7</ele>
        <time>2023-03-16T09:06:29Z</time>
      </trkpt>
      <trkpt lat="48.58204" lon="1.76125">
        <ele>136</ele>
        <time>2023-03-16T09:06:38Z</time>
      </trkpt>
      <trkpt lat="48.58212" lon="1.76119">
        <ele>135.2</ele>
        <time>2023-03-16T09:06:49Z</time>
      </trkpt>
      <trkpt lat="48.5822" lon="1.76112">
        <ele>134.2</ele>
        <time>2023-03-16T09:06:59Z</time>
      </trkpt>
      <trkpt lat="48.5823" lon="1.7611">
        <ele>133.7</ele>
        <time>2023-03-16T09:10:59Z</time>
      </trkpt>
      <trkpt lat="48.58239" lon="1.76108">
        <ele>133.4</ele>
        <time>2023-03-16T09:11:08Z</time>
      </trkpt>
      <trkpt lat="48.58247" lon="1.76102">
        <ele>133.1</ele>
        <time>2023-03-16T09:11:17Z</time>
      </trkpt>
      <trkpt lat="48.58256" lon="1.76097">
        <ele>133.1</ele>
        <time>2023-03-16T09:11:27Z</time>
      </trkpt>
      <trkpt lat="48.58265" lon="1.7609">
        <ele>133.4</ele>
        <time>2023-03-16T09:11:36Z</time>
      </trkpt>
      <trkpt lat="48.58274" lon="1.76083">
        <ele>133.9</ele>
        <time>2023-03-16T09:11:44Z</time>
      </trkpt>
      <trkpt lat="48.58283" lon="1.76077">
        <ele>133.7</ele>
        <time>2023-03-16T09:11:51Z</time>
      </trkpt>
      <trkpt lat="48.58292" lon="1.76071">
        <ele>133.7</ele>
        <time>2023-03-16T09:11:58Z</time>
      </trkpt>
      <trkpt lat="48.583" lon="1.76065">
        <ele>134.1</ele>
        <time>2023-03-16T09:12:07Z</time>
      </trkpt>
      <trkpt lat="48.58303" lon="1.76051">
        <ele>135.2</ele>
        <time>2023-03-16T09:12:15Z</time>
      </trkpt>
      <trkpt lat="48.58306" lon="1.76038">
        <ele>136.5</ele>
        <time>2023-03-16T09:12:22Z</time>
      </trkpt>
      <trkpt lat="48.58308" lon="1.76023">
        <ele>137.8</ele>
        <time>2023-03-16T09:12:30Z</time>
      </trkpt>
      <trkpt lat="48.58309" lon="1.76008">
        <ele>139.1</ele>
        <time>2023-03-16T09:12:38Z</time>
      </trkpt>
      <trkpt lat="48.5831" lon="1.75993">
        <ele>139.8</ele>
        <time>2023-03-16T09:12:45Z</time>
      </trkpt>
      <trkpt lat="48.58313" lon="1.7598">
        <ele>140.4</ele>
        <time>2023-03-16T09:12:52Z</time>
      </trkpt>
      <trkpt lat="48.5832" lon="1.75971">
        <ele>141.5</ele>
        <time>2023-03-16T09:13:00Z</time>
      </trkpt>
      <trkpt lat="48.5833" lon="1.7597">
        <ele>143.3</ele>
        <time>2023-03-16T09:13:10Z</time>
      </trkpt>
      <trkpt lat="48.58339" lon="1.7597">
        <ele>144.5</ele>
        <time>2023-03-16T09:13:19Z</time>
      </trkpt>
      <trkpt lat="48.58348" lon="1.75973">
        <ele>145.7</ele>
        <time>2023-03-16T09:13:29Z</time>
      </trkpt>
      <trkpt lat="48.58356" lon="1.7598">
        <ele>146.9</ele>
        <time>2023-03-16T09:13:38Z</time>
      </trkpt>
      <trkpt lat="48.58366" lon="1.75981">
        <ele>148.2</ele>
        <time>2023-03-16T09:13:47Z</time>
      </trkpt>
      <trkpt lat="48.58375" lon="1.75985">
        <ele>149.4</ele>
        <time>2023-03-16T09:13:58Z</time>
      </trkpt>
      <trkpt lat="48.58383" lon="1.75988">
        <ele>150.4</ele>
        <time>2023-03-16T09:14:08Z</time>
      </trkpt>
      <trkpt lat="48.58392" lon="1.75992">
        <ele>151.1</ele>
        <time>2023-03-16T09:14:16Z</time>
      </trkpt>
      <trkpt lat="48.58401" lon="1.75994">
        <ele>151.5</ele>
        <time>2023-03-16T09:14:24Z</time>
      </trkpt>
      <trkpt lat="48.58411" lon="1.75999">
        <ele>151.8</ele>
        <time>2023-03-16T09:14:33Z</time>
      </trkpt>
      <trkpt lat="48.58421" lon="1.76002">
        <ele>152.2</ele>
        <time>2023-03-16T09:14:40Z</time>
      </trkpt>
      <trkpt lat="48.58431" lon="1.76003">
        <ele>152.5</ele>
        <time>2023-03-16T09:14:47Z</time>
      </trkpt>
      <trkpt lat="48.58441" lon="1.76007">
        <ele>152.9</ele>
        <time>2023-03-16T09:14:54Z</time>
      </trkpt>
      <trkpt lat="48.58451" lon="1.7601">
        <ele>153.1</ele>
        <time>2023-03-16T09:15:02Z</time>
      </trkpt>
      <trkpt lat="48.5846" lon="1.76011">
        <ele>153.3</ele>
        <time>2023-03-16T09:15:08Z</time>
      </trkpt>
      <trkpt lat="48.5847" lon="1.76013">
        <ele>153.5</ele>
        <time>2023-03-16T09:15:15Z</time>
      </trkpt>
      <trkpt lat="48.58479" lon="1.76012">
        <ele>153.7</ele>
        <time>2023-03-16T09:15:22Z</time>
      </trkpt>
      <trkpt lat="48.58488" lon="1.76008">
        <ele>153.9</ele>
        <time>2023-03-16T09:15:28Z</time>
      </trkpt>
      <trkpt lat="48.58496" lon="1.75998">
        <ele>154</ele>
        <time>2023-03-16T09:15:35Z</time>
      </trkpt>
      <trkpt lat="48.585" lon="1.75984">
        <ele>154</ele>
        <time>2023-03-16T09:15:43Z</time>
      </trkpt>
      <trkpt lat="48.58505" lon="1.75972">
        <ele>154.2</ele>
        <time>2023-03-16T09:15:51Z</time>
      </trkpt>
      <trkpt lat="48.5851" lon="1.7596">
        <ele>154.3</ele>
        <time>2023-03-16T09:15:58Z</time>
      </trkpt>
      <trkpt lat="48.58514" lon="1.75948">
        <ele>154.5</ele>
        <time>2023-03-16T09:16:05Z</time>
      </trkpt>
      <trkpt lat="48.58518" lon="1.75933">
        <ele>154.6</ele>
        <time>2023-03-16T09:16:12Z</time>
      </trkpt>
      <trkpt lat="48.58525" lon="1.75922">
        <ele>154.9</ele>
        <time>2023-03-16T09:16:20Z</time>
      </trkpt>
      <trkpt lat="48.5853" lon="1.75912">
        <ele>155.1</ele>
        <time>2023-03-16T09:16:28Z</time>
      </trkpt>
      <trkpt lat="48.58537" lon="1.75901">
        <ele>155.3</ele>
        <time>2023-03-16T09:16:36Z</time>
      </trkpt>
      <trkpt lat="48.58541" lon="1.75887">
        <ele>155.5</ele>
        <time>2023-03-16T09:16:42Z</time>
      </trkpt>
      <trkpt lat="48.58547" lon="1.75875">
        <ele>155.7</ele>
        <time>2023-03-16T09:16:49Z</time>
      </trkpt>
      <trkpt lat="48.58552" lon="1.75861">
        <ele>155.9</ele>
        <time>2023-03-16T09:16:55Z</time>
      </trkpt>
      <trkpt lat="48.58559" lon="1.75851">
        <ele>156</ele>
        <time>2023-03-16T09:17:02Z</time>
      </trkpt>
      <trkpt lat="48.5856" lon="1.75837">
        <ele>156.2</ele>
        <time>2023-03-16T09:17:07Z</time>
      </trkpt>
      <trkpt lat="48.58564" lon="1.75824">
        <ele>156.3</ele>
        <time>2023-03-16T09:17:13Z</time>
      </trkpt>
      <trkpt lat="48.58568" lon="1.75811">
        <ele>156.4</ele>
        <time>2023-03-16T09:17:19Z</time>
      </trkpt>
      <trkpt lat="48.58573" lon="1.75799">
        <ele>156.6</ele>
        <time>2023-03-16T09:17:25Z</time>
      </trkpt>
      <trkpt lat="48.58578" lon="1.75787">
        <ele>156.8</ele>
        <time>2023-03-16T09:17:32Z</time>
      </trkpt>
      <trkpt lat="48.58581" lon="1.75774">
        <ele>156.9</ele>
        <time>2023-03-16T09:17:39Z</time>
      </trkpt>
      <trkpt lat="48.58586" lon="1.75761">
        <ele>157</ele>
        <time>2023-03-16T09:17:46Z</time>
      </trkpt>
      <trkpt lat="48.58591" lon="1.75749">
        <ele>157</ele>
        <time>2023-03-16T09:17:53Z</time>
      </trkpt>
      <trkpt lat="48.58596" lon="1.75736">
        <ele>157</ele>
        <time>2023-03-16T09:18:02Z</time>
      </trkpt>
      <trkpt lat="48.58603" lon="1.75726">
        <ele>157</ele>
        <time>2023-03-16T09:18:11Z</time>
      </trkpt>
      <trkpt lat="48.58609" lon="1.75714">
        <ele>157</ele>
        <time>2023-03-16T09:18:19Z</time>
      </trkpt>
      <trkpt lat="48.58616" lon="1.75701">
        <ele>157.2</ele>
        <time>2023-03-16T09:18:27Z</time>
      </trkpt>
      <trkpt lat="48.58622" lon="1.7569">
        <ele>157.4</ele>
        <time>2023-03-16T09:18:35Z</time>
      </trkpt>
      <trkpt lat="48.58627" lon="1.75678">
        <ele>157.6</ele>
        <time>2023-03-16T09:18:42Z</time>
      </trkpt>
      <trkpt lat="48.58634" lon="1.75667">
        <ele>157.8</ele>
        <time>2023-03-16T09:18:50Z</time>
      </trkpt>
      <trkpt lat="48.58638" lon="1.75655">
        <ele>157.6</ele>
        <time>2023-03-16T09:18:56Z</time>
      </trkpt>
      <trkpt lat="48.58643" lon="1.75641">
        <ele>157.2</ele>
        <time>2023-03-16T09:19:04Z</time>
      </trkpt>
      <trkpt lat="48.58647" lon="1.75628">
        <ele>157.6</ele>
        <time>2023-03-16T09:19:10Z</time>
      </trkpt>
      <trkpt lat="48.58653" lon="1.75618">
        <ele>157.9</ele>
        <time>2023-03-16T09:19:17Z</time>
      </trkpt>
      <trkpt lat="48.58658" lon="1.75607">
        <ele>158</ele>
        <time>2023-03-16T09:19:23Z</time>
      </trkpt>
      <trkpt lat="48.58662" lon="1.75592">
        <ele>158</ele>
        <time>2023-03-16T09:19:31Z</time>
      </trkpt>
      <trkpt lat="48.58666" lon="1.75578">
        <ele>158</ele>
        <time>2023-03-16T09:19:38Z</time>
      </trkpt>
      <trkpt lat="48.58669" lon="1.75564">
        <ele>158</ele>
        <time>2023-03-16T09:19:45Z</time>
      </trkpt>
      <trkpt lat="48.58673" lon="1.7555">
        <ele>158</ele>
        <time>2023-03-16T09:19:52Z</time>
      </trkpt>
      <trkpt lat="48.58675" lon="1.75535">
        <ele>158.2</ele>
        <time>2023-03-16T09:19:58Z</time>
      </trkpt>
      <trkpt lat="48.58677" lon="1.7552">
        <ele>158.4</ele>
        <time>2023-03-16T09:20:04Z</time>
      </trkpt>
      <trkpt lat="48.58679" lon="1.75505">
        <ele>158.4</ele>
        <time>2023-03-16T09:20:10Z</time>
      </trkpt>
      <trkpt lat="48.58682" lon="1.75491">
        <ele>158.4</ele>
        <time>2023-03-16T09:20:17Z</time>
      </trkpt>
      <trkpt lat="48.58685" lon="1.75477">
        <ele>158.1</ele>
        <time>2023-03-16T09:20:23Z</time>
      </trkpt>
      <trkpt lat="48.58688" lon="1.75463">
        <ele>158.2</ele>
        <time>2023-03-16T09:20:29Z</time>
      </trkpt>
      <trkpt lat="48.5869" lon="1.75449">
        <ele>158.6</ele>
        <time>2023-03-16T09:20:35Z</time>
      </trkpt>
      <trkpt lat="48.58691" lon="1.75435">
        <ele>158.5</ele>
        <time>2023-03-16T09:20:42Z</time>
      </trkpt>
      <trkpt lat="48.58693" lon="1.75421">
        <ele>158.1</ele>
        <time>2023-03-16T09:20:49Z</time>
      </trkpt>
      <trkpt lat="48.58698" lon="1.75408">
        <ele>158.1</ele>
        <time>2023-03-16T09:20:56Z</time>
      </trkpt>
      <trkpt lat="48.58702" lon="1.75394">
        <ele>158</ele>
        <time>2023-03-16T09:21:03Z</time>
      </trkpt>
      <trkpt lat="48.58704" lon="1.7538">
        <ele>158.1</ele>
        <time>2023-03-16T09:21:09Z</time>
      </trkpt>
      <trkpt lat="48.58705" lon="1.75365">
        <ele>158.3</ele>
        <time>2023-03-16T09:21:16Z</time>
      </trkpt>
      <trkpt lat="48.58705" lon="1.75349">
        <ele>157.9</ele>
        <time>2023-03-16T09:21:23Z</time>
      </trkpt>
      <trkpt lat="48.58704" lon="1.75334">
        <ele>157.4</ele>
        <time>2023-03-16T09:21:31Z</time>
      </trkpt>
      <trkpt lat="48.58703" lon="1.75318">
        <ele>157.3</ele>
        <time>2023-03-16T09:21:38Z</time>
      </trkpt>
      <trkpt lat="48.58702" lon="1.75303">
        <ele>157.3</ele>
        <time>2023-03-16T09:21:44Z</time>
      </trkpt>
      <trkpt lat="48.58701" lon="1.75287">
        <ele>157.2</ele>
        <time>2023-03-16T09:21:50Z</time>
      </trkpt>
      <trkpt lat="48.58699" lon="1.75274">
        <ele>157.2</ele>
        <time>2023-03-16T09:21:57Z</time>
      </trkpt>
      <trkpt lat="48.58696" lon="1.7526">
        <ele>157.1</ele>
        <time>2023-03-16T09:22:04Z</time>
      </trkpt>
      <trkpt lat="48.58695" lon="1.75246">
        <ele>156.9</ele>
        <time>2023-03-16T09:22:11Z</time>
      </trkpt>
      <trkpt lat="48.58696" lon="1.7523">
        <ele>156.3</ele>
        <time>2023-03-16T09:22:18Z</time>
      </trkpt>
      <trkpt lat="48.58696" lon="1.75216">
        <ele>155.8</ele>
        <time>2023-03-16T09:22:24Z</time>
      </trkpt>
      <trkpt lat="48.58697" lon="1.75202">
        <ele>155.4</ele>
        <time>2023-03-16T09:22:30Z</time>
      </trkpt>
      <trkpt lat="48.58697" lon="1.75187">
        <ele>154.9</ele>
        <time>2023-03-16T09:22:37Z</time>
      </trkpt>
      <trkpt lat="48.58699" lon="1.75173">
        <ele>154.6</ele>
        <time>2023-03-16T09:22:42Z</time>
      </trkpt>
      <trkpt lat="48.587" lon="1.75159">
        <ele>154.4</ele>
        <time>2023-03-16T09:22:48Z</time>
      </trkpt>
      <trkpt lat="48.58702" lon="1.75144">
        <ele>154.5</ele>
        <time>2023-03-16T09:22:55Z</time>
      </trkpt>
      <trkpt lat="48.58705" lon="1.75129">
        <ele>154.7</ele>
        <time>2023-03-16T09:23:02Z</time>
      </trkpt>
      <trkpt lat="48.58708" lon="1.75114">
        <ele>155</ele>
        <time>2023-03-16T09:23:08Z</time>
      </trkpt>
      <trkpt lat="48.5871" lon="1.751">
        <ele>155.1</ele>
        <time>2023-03-16T09:23:14Z</time>
      </trkpt>
      <trkpt lat="48.58712" lon="1.75086">
        <ele>155.3</ele>
        <time>2023-03-16T09:23:20Z</time>
      </trkpt>
      <trkpt lat="48.58715" lon="1.75071">
        <ele>155.1</ele>
        <time>2023-03-16T09:23:26Z</time>
      </trkpt>
      <trkpt lat="48.58716" lon="1.75055">
        <ele>154.8</ele>
        <time>2023-03-16T09:23:32Z</time>
      </trkpt>
      <trkpt lat="48.58718" lon="1.75041">
        <ele>154.9</ele>
        <time>2023-03-16T09:23:39Z</time>
      </trkpt>
      <trkpt lat="48.58721" lon="1.75028">
        <ele>155</ele>
        <time>2023-03-16T09:23:45Z</time>
      </trkpt>
      <trkpt lat="48.58724" lon="1.75014">
        <ele>155.1</ele>
        <time>2023-03-16T09:23:52Z</time>
      </trkpt>
      <trkpt lat="48.58728" lon="1.75">
        <ele>155.2</ele>
        <time>2023-03-16T09:23:58Z</time>
      </trkpt>
      <trkpt lat="48.58732" lon="1.74987">
        <ele>154.9</ele>
        <time>2023-03-16T09:24:05Z</time>
      </trkpt>
      <trkpt lat="48.58735" lon="1.74974">
        <ele>154.5</ele>
        <time>2023-03-16T09:24:11Z</time>
      </trkpt>
      <trkpt lat="48.58737" lon="1.7496">
        <ele>154.5</ele>
        <time>2023-03-16T09:24:17Z</time>
      </trkpt>
      <trkpt lat="48.58739" lon="1.74947">
        <ele>154.6</ele>
        <time>2023-03-16T09:24:25Z</time>
      </trkpt>
      <trkpt lat="48.58743" lon="1.74933">
        <ele>154.6</ele>
        <time>2023-03-16T09:24:33Z</time>
      </trkpt>
      <trkpt lat="48.58746" lon="1.74918">
        <ele>154.7</ele>
        <time>2023-03-16T09:24:40Z</time>
      </trkpt>
      <trkpt lat="48.58749" lon="1.74903">
        <ele>154.4</ele>
        <time>2023-03-16T09:24:48Z</time>
      </trkpt>
      <trkpt lat="48.5875" lon="1.7489">
        <ele>154</ele>
        <time>2023-03-16T09:24:53Z</time>
      </trkpt>
      <trkpt lat="48.58753" lon="1.74876">
        <ele>154.1</ele>
        <time>2023-03-16T09:25:00Z</time>
      </trkpt>
      <trkpt lat="48.58756" lon="1.74862">
        <ele>154.2</ele>
        <time>2023-03-16T09:25:07Z</time>
      </trkpt>
      <trkpt lat="48.58759" lon="1.74848">
        <ele>154</ele>
        <time>2023-03-16T09:25:14Z</time>
      </trkpt>
      <trkpt lat="48.58765" lon="1.74835">
        <ele>154.1</ele>
        <time>2023-03-16T09:25:21Z</time>
      </trkpt>
      <trkpt lat="48.58772" lon="1.74825">
        <ele>154.3</ele>
        <time>2023-03-16T09:25:29Z</time>
      </trkpt>
      <trkpt lat="48.58778" lon="1.74814">
        <ele>154.3</ele>
        <time>2023-03-16T09:25:35Z</time>
      </trkpt>
      <trkpt lat="48.58785" lon="1.74804">
        <ele>154.1</ele>
        <time>2023-03-16T09:25:43Z</time>
      </trkpt>
      <trkpt lat="48.58791" lon="1.74792">
        <ele>153.7</ele>
        <time>2023-03-16T09:25:50Z</time>
      </trkpt>
      <trkpt lat="48.58796" lon="1.74781">
        <ele>153.5</ele>
        <time>2023-03-16T09:25:57Z</time>
      </trkpt>
      <trkpt lat="48.58802" lon="1.7477">
        <ele>153.7</ele>
        <time>2023-03-16T09:26:04Z</time>
      </trkpt>
      <trkpt lat="48.58803" lon="1.74756">
        <ele>153.7</ele>
        <time>2023-03-16T09:26:11Z</time>
      </trkpt>
      <trkpt lat="48.58805" lon="1.74742">
        <ele>154.2</ele>
        <time>2023-03-16T09:26:17Z</time>
      </trkpt>
      <trkpt lat="48.58807" lon="1.74728">
        <ele>154.8</ele>
        <time>2023-03-16T09:26:23Z</time>
      </trkpt>
      <trkpt lat="48.58808" lon="1.74714">
        <ele>155.1</ele>
        <time>2023-03-16T09:26:31Z</time>
      </trkpt>
      <trkpt lat="48.58811" lon="1.74701">
        <ele>155.2</ele>
        <time>2023-03-16T09:26:38Z</time>
      </trkpt>
      <trkpt lat="48.58811" lon="1.74686">
        <ele>155.2</ele>
        <time>2023-03-16T09:26:44Z</time>
      </trkpt>
      <trkpt lat="48.58812" lon="1.7467">
        <ele>155.2</ele>
        <time>2023-03-16T09:26:50Z</time>
      </trkpt>
      <trkpt lat="48.58815" lon="1.74656">
        <ele>155.1</ele>
        <time>2023-03-16T09:26:57Z</time>
      </trkpt>
      <trkpt lat="48.58816" lon="1.74641">
        <ele>154.8</ele>
        <time>2023-03-16T09:27:05Z</time>
      </trkpt>
      <trkpt lat="48.58818" lon="1.74627">
        <ele>154.9</ele>
        <time>2023-03-16T09:27:13Z</time>
      </trkpt>
      <trkpt lat="48.58821" lon="1.74612">
        <ele>155.1</ele>
        <time>2023-03-16T09:27:19Z</time>
      </trkpt>
      <trkpt lat="48.58823" lon="1.74598">
        <ele>155.5</ele>
        <time>2023-03-16T09:27:25Z</time>
      </trkpt>
      <trkpt lat="48.58825" lon="1.74584">
        <ele>155.7</ele>
        <time>2023-03-16T09:27:33Z</time>
      </trkpt>
      <trkpt lat="48.58826" lon="1.74568">
        <ele>155.3</ele>
        <time>2023-03-16T09:27:41Z</time>
      </trkpt>
      <trkpt lat="48.58828" lon="1.74554">
        <ele>155.1</ele>
        <time>2023-03-16T09:27:46Z</time>
      </trkpt>
      <trkpt lat="48.5883" lon="1.7454">
        <ele>155.5</ele>
        <time>2023-03-16T09:27:52Z</time>
      </trkpt>
      <trkpt lat="48.58834" lon="1.74527">
        <ele>156</ele>
        <time>2023-03-16T09:27:59Z</time>
      </trkpt>
      <trkpt lat="48.58842" lon="1.74519">
        <ele>156.3</ele>
        <time>2023-03-16T09:28:07Z</time>
      </trkpt>
      <trkpt lat="48.58842" lon="1.74505">
        <ele>156.3</ele>
        <time>2023-03-16T09:28:17Z</time>
      </trkpt>
      <trkpt lat="48.5884" lon="1.74492">
        <ele>156.3</ele>
        <time>2023-03-16T09:28:23Z</time>
      </trkpt>
      <trkpt lat="48.5884" lon="1.74478">
        <ele>156.2</ele>
        <time>2023-03-16T09:28:30Z</time>
      </trkpt>
      <trkpt lat="48.58839" lon="1.74463">
        <ele>156.2</ele>
        <time>2023-03-16T09:28:40Z</time>
      </trkpt>
      <trkpt lat="48.58837" lon="1.74449">
        <ele>156.1</ele>
        <time>2023-03-16T09:28:50Z</time>
      </trkpt>
      <trkpt lat="48.5884" lon="1.74434">
        <ele>156.2</ele>
        <time>2023-03-16T09:28:59Z</time>
      </trkpt>
      <trkpt lat="48.58843" lon="1.7442">
        <ele>156.3</ele>
        <time>2023-03-16T09:29:08Z</time>
      </trkpt>
      <trkpt lat="48.58845" lon="1.74406">
        <ele>156.3</ele>
        <time>2023-03-16T09:29:18Z</time>
      </trkpt>
      <trkpt lat="48.58849" lon="1.74392">
        <ele>156.1</ele>
        <time>2023-03-16T09:29:48Z</time>
      </trkpt>
      <trkpt lat="48.58857" lon="1.74383">
        <ele>156</ele>
        <time>2023-03-16T09:29:57Z</time>
      </trkpt>
      <trkpt lat="48.58865" lon="1.74375">
        <ele>156.1</ele>
        <time>2023-03-16T09:30:05Z</time>
      </trkpt>
      <trkpt lat="48.58872" lon="1.74364">
        <ele>156.4</ele>
        <time>2023-03-16T09:30:14Z</time>
      </trkpt>
      <trkpt lat="48.58879" lon="1.74353">
        <ele>156.5</ele>
        <time>2023-03-16T09:30:21Z</time>
      </trkpt>
      <trkpt lat="48.58886" lon="1.74344">
        <ele>156.3</ele>
        <time>2023-03-16T09:30:28Z</time>
      </trkpt>
      <trkpt lat="48.58893" lon="1.74334">
        <ele>156</ele>
        <time>2023-03-16T09:30:34Z</time>
      </trkpt>
      <trkpt lat="48.589" lon="1.74324">
        <ele>155.7</ele>
        <time>2023-03-16T09:30:41Z</time>
      </trkpt>
      <trkpt lat="48.58907" lon="1.74314">
        <ele>155.3</ele>
        <time>2023-03-16T09:30:48Z</time>
      </trkpt>
      <trkpt lat="48.58915" lon="1.74304">
        <ele>154.9</ele>
        <time>2023-03-16T09:30:56Z</time>
      </trkpt>
      <trkpt lat="48.58923" lon="1.74297">
        <ele>154.1</ele>
        <time>2023-03-16T09:31:02Z</time>
      </trkpt>
      <trkpt lat="48.58929" lon="1.74286">
        <ele>153.3</ele>
        <time>2023-03-16T09:31:08Z</time>
      </trkpt>
      <trkpt lat="48.58936" lon="1.74276">
        <ele>152.9</ele>
        <time>2023-03-16T09:31:14Z</time>
      </trkpt>
      <trkpt lat="48.58944" lon="1.74266">
        <ele>152.6</ele>
        <time>2023-03-16T09:31:21Z</time>
      </trkpt>
      <trkpt lat="48.58951" lon="1.74256">
        <ele>152.9</ele>
        <time>2023-03-16T09:31:28Z</time>
      </trkpt>
      <trkpt lat="48.58959" lon="1.74247">
        <ele>153.6</ele>
        <time>2023-03-16T09:31:35Z</time>
      </trkpt>
      <trkpt lat="48.58967" lon="1.74239">
        <ele>154.5</ele>
        <time>2023-03-16T09:31:42Z</time>
      </trkpt>
      <trkpt lat="48.58973" lon="1.74226">
        <ele>155</ele>
        <time>2023-03-16T09:31:49Z</time>
      </trkpt>
      <trkpt lat="48.58979" lon="1.74214">
        <ele>155.6</ele>
        <time>2023-03-16T09:31:57Z</time>
      </trkpt>
      <trkpt lat="48.58984" lon="1.74202">
        <ele>156</ele>
        <time>2023-03-16T09:32:04Z</time>
      </trkpt>
      <trkpt lat="48.5899" lon="1.7419">
        <ele>155.9</ele>
        <time>2023-03-16T09:32:11Z</time>
      </trkpt>
      <trkpt lat="48.58995" lon="1.74178">
        <ele>155.9</ele>
        <time>2023-03-16T09:32:17Z</time>
      </trkpt>
      <trkpt lat="48.59" lon="1.74167">
        <ele>156</ele>
        <time>2023-03-16T09:32:23Z</time>
      </trkpt>
      <trkpt lat="48.59005" lon="1.74154">
        <ele>156.2</ele>
        <time>2023-03-16T09:32:30Z</time>
      </trkpt>
      <trkpt lat="48.59009" lon="1.74141">
        <ele>156.3</ele>
        <time>2023-03-16T09:32:36Z</time>
      </trkpt>
      <trkpt lat="48.59014" lon="1.74129">
        <ele>156.3</ele>
        <time>2023-03-16T09:32:43Z</time>
      </trkpt>
      <trkpt lat="48.5902" lon="1.74117">
        <ele>156.5</ele>
        <time>2023-03-16T09:32:50Z</time>
      </trkpt>
      <trkpt lat="48.59024" lon="1.74103">
        <ele>156.5</ele>
        <time>2023-03-16T09:32:57Z</time>
      </trkpt>
      <trkpt lat="48.59028" lon="1.74091">
        <ele>156.3</ele>
        <time>2023-03-16T09:33:03Z</time>
      </trkpt>
      <trkpt lat="48.59032" lon="1.74078">
        <ele>156</ele>
        <time>2023-03-16T09:33:09Z</time>
      </trkpt>
      <trkpt lat="48.59039" lon="1.74066">
        <ele>156.3</ele>
        <time>2023-03-16T09:33:16Z</time>
      </trkpt>
      <trkpt lat="48.59046" lon="1.74055">
        <ele>156.6</ele>
        <time>2023-03-16T09:33:22Z</time>
      </trkpt>
      <trkpt lat="48.59052" lon="1.74041">
        <ele>156.8</ele>
        <time>2023-03-16T09:33:29Z</time>
      </trkpt>
      <trkpt lat="48.59057" lon="1.74028">
        <ele>157</ele>
        <time>2023-03-16T09:33:36Z</time>
      </trkpt>
      <trkpt lat="48.59061" lon="1.74014">
        <ele>156.8</ele>
        <time>2023-03-16T09:33:42Z</time>
      </trkpt>
      <trkpt lat="48.59066" lon="1.74002">
        <ele>156.8</ele>
        <time>2023-03-16T09:33:48Z</time>
      </trkpt>
      <trkpt lat="48.59071" lon="1.73991">
        <ele>156.8</ele>
        <time>2023-03-16T09:33:55Z</time>
      </trkpt>
      <trkpt lat="48.59078" lon="1.73978">
        <ele>156.8</ele>
        <time>2023-03-16T09:34:01Z</time>
      </trkpt>
      <trkpt lat="48.59084" lon="1.73966">
        <ele>157</ele>
        <time>2023-03-16T09:34:07Z</time>
      </trkpt>
      <trkpt lat="48.5909" lon="1.73954">
        <ele>157.3</ele>
        <time>2023-03-16T09:34:14Z</time>
      </trkpt>
      <trkpt lat="48.59096" lon="1.73941">
        <ele>157.4</ele>
        <time>2023-03-16T09:34:20Z</time>
      </trkpt>
      <trkpt lat="48.59101" lon="1.73929">
        <ele>157.6</ele>
        <time>2023-03-16T09:34:25Z</time>
      </trkpt>
      <trkpt lat="48.59105" lon="1.73917">
        <ele>157.8</ele>
        <time>2023-03-16T09:34:30Z</time>
      </trkpt>
      <trkpt lat="48.59111" lon="1.73906">
        <ele>158</ele>
        <time>2023-03-16T09:34:35Z</time>
      </trkpt>
      <trkpt lat="48.59117" lon="1.73895">
        <ele>158.2</ele>
        <time>2023-03-16T09:34:41Z</time>
      </trkpt>
      <trkpt lat="48.59123" lon="1.73884">
        <ele>158.3</ele>
        <time>2023-03-16T09:34:48Z</time>
      </trkpt>
      <trkpt lat="48.5913" lon="1.73874">
        <ele>158.1</ele>
        <time>2023-03-16T09:34:56Z</time>
      </trkpt>
      <trkpt lat="48.59136" lon="1.73863">
        <ele>157.9</ele>
        <time>2023-03-16T09:35:04Z</time>
      </trkpt>
      <trkpt lat="48.59141" lon="1.7385">
        <ele>158.1</ele>
        <time>2023-03-16T09:35:11Z</time>
      </trkpt>
      <trkpt lat="48.59147" lon="1.73839">
        <ele>158.3</ele>
        <time>2023-03-16T09:35:19Z</time>
      </trkpt>
      <trkpt lat="48.59155" lon="1.73829">
        <ele>158.6</ele>
        <time>2023-03-16T09:35:27Z</time>
      </trkpt>
      <trkpt lat="48.5916" lon="1.73816">
        <ele>158.8</ele>
        <time>2023-03-16T09:35:35Z</time>
      </trkpt>
      <trkpt lat="48.59166" lon="1.73805">
        <ele>159</ele>
        <time>2023-03-16T09:35:43Z</time>
      </trkpt>
      <trkpt lat="48.59171" lon="1.73792">
        <ele>159.1</ele>
        <time>2023-03-16T09:35:50Z</time>
      </trkpt>
      <trkpt lat="48.59176" lon="1.7378">
        <ele>159.3</ele>
        <time>2023-03-16T09:35:58Z</time>
      </trkpt>
      <trkpt lat="48.59183" lon="1.7377">
        <ele>159.3</ele>
        <time>2023-03-16T09:36:05Z</time>
      </trkpt>
      <trkpt lat="48.5919" lon="1.7376">
        <ele>159.2</ele>
        <time>2023-03-16T09:36:13Z</time>
      </trkpt>
      <trkpt lat="48.59197" lon="1.7375">
        <ele>159.1</ele>
        <time>2023-03-16T09:36:21Z</time>
      </trkpt>
      <trkpt lat="48.59203" lon="1.73741">
        <ele>159.3</ele>
        <time>2023-03-16T09:36:27Z</time>
      </trkpt>
      <trkpt lat="48.59209" lon="1.7373">
        <ele>159.5</ele>
        <time>2023-03-16T09:36:35Z</time>
      </trkpt>
      <trkpt lat="48.59215" lon="1.73719">
        <ele>159.7</ele>
        <time>2023-03-16T09:36:56Z</time>
      </trkpt>
      <trkpt lat="48.59222" lon="1.73709">
        <ele>160</ele>
        <time>2023-03-16T09:37:03Z</time>
      </trkpt>
      <trkpt lat="48.59224" lon="1.73695">
        <ele>160</ele>
        <time>2023-03-16T09:37:13Z</time>
      </trkpt>
      <trkpt lat="48.59222" lon="1.73682">
        <ele>160</ele>
        <time>2023-03-16T09:37:21Z</time>
      </trkpt>
      <trkpt lat="48.59225" lon="1.73669">
        <ele>160</ele>
        <time>2023-03-16T09:37:31Z</time>
      </trkpt>
      <trkpt lat="48.59224" lon="1.73682">
        <ele>160</ele>
        <time>2023-03-16T09:39:11Z</time>
      </trkpt>
      <trkpt lat="48.59219" lon="1.73671">
        <ele>159.8</ele>
        <time>2023-03-16T09:41:45Z</time>
      </trkpt>
      <trkpt lat="48.59213" lon="1.7366">
        <ele>159.2</ele>
        <time>2023-03-16T09:41:52Z</time>
      </trkpt>
      <trkpt lat="48.59207" lon="1.73648">
        <ele>158.6</ele>
        <time>2023-03-16T09:41:59Z</time>
      </trkpt>
      <trkpt lat="48.59202" lon="1.73636">
        <ele>158.2</ele>
        <time>2023-03-16T09:42:06Z</time>
      </trkpt>
      <trkpt lat="48.59196" lon="1.73624">
        <ele>157.6</ele>
        <time>2023-03-16T09:42:14Z</time>
      </trkpt>
      <trkpt lat="48.5919" lon="1.73614">
        <ele>156.9</ele>
        <time>2023-03-16T09:42:20Z</time>
      </trkpt>
      <trkpt lat="48.59185" lon="1.73602">
        <ele>156.4</ele>
        <time>2023-03-16T09:42:27Z</time>
      </trkpt>
      <trkpt lat="48.59181" lon="1.73588">
        <ele>155.7</ele>
        <time>2023-03-16T09:42:34Z</time>
      </trkpt>
      <trkpt lat="48.5918" lon="1.73574">
        <ele>155.7</ele>
        <time>2023-03-16T09:42:42Z</time>
      </trkpt>
      <trkpt lat="48.59181" lon="1.73559">
        <ele>156</ele>
        <time>2023-03-16T09:42:50Z</time>
      </trkpt>
      <trkpt lat="48.59185" lon="1.73545">
        <ele>156.3</ele>
        <time>2023-03-16T09:42:59Z</time>
      </trkpt>
      <trkpt lat="48.59191" lon="1.73532">
        <ele>156.7</ele>
        <time>2023-03-16T09:43:07Z</time>
      </trkpt>
      <trkpt lat="48.59195" lon="1.73519">
        <ele>157</ele>
        <time>2023-03-16T09:43:13Z</time>
      </trkpt>
      <trkpt lat="48.59199" lon="1.73506">
        <ele>157.2</ele>
        <time>2023-03-16T09:43:21Z</time>
      </trkpt>
      <trkpt lat="48.59204" lon="1.73493">
        <ele>157.1</ele>
        <time>2023-03-16T09:43:29Z</time>
      </trkpt>
      <trkpt lat="48.59206" lon="1.73479">
        <ele>156.7</ele>
        <time>2023-03-16T09:43:36Z</time>
      </trkpt>
      <trkpt lat="48.5921" lon="1.73465">
        <ele>156.6</ele>
        <time>2023-03-16T09:43:44Z</time>
      </trkpt>
      <trkpt lat="48.59213" lon="1.73451">
        <ele>156.7</ele>
        <time>2023-03-16T09:43:51Z</time>
      </trkpt>
      <trkpt lat="48.59216" lon="1.73437">
        <ele>156.5</ele>
        <time>2023-03-16T09:43:58Z</time>
      </trkpt>
      <trkpt lat="48.59222" lon="1.73424">
        <ele>156.3</ele>
        <time>2023-03-16T09:44:04Z</time>
      </trkpt>
      <trkpt lat="48.59227" lon="1.73411">
        <ele>156.1</ele>
        <time>2023-03-16T09:44:10Z</time>
      </trkpt>
      <trkpt lat="48.59231" lon="1.73398">
        <ele>156</ele>
        <time>2023-03-16T09:44:17Z</time>
      </trkpt>
      <trkpt lat="48.59236" lon="1.73384">
        <ele>155.7</ele>
        <time>2023-03-16T09:44:23Z</time>
      </trkpt>
      <trkpt lat="48.59241" lon="1.73369">
        <ele>155.4</ele>
        <time>2023-03-16T09:44:30Z</time>
      </trkpt>
      <trkpt lat="48.59247" lon="1.73357">
        <ele>155.7</ele>
        <time>2023-03-16T09:44:37Z</time>
      </trkpt>
      <trkpt lat="48.59251" lon="1.73345">
        <ele>156.1</ele>
        <time>2023-03-16T09:44:43Z</time>
      </trkpt>
      <trkpt lat="48.59257" lon="1.73331">
        <ele>156.2</ele>
        <time>2023-03-16T09:44:49Z</time>
      </trkpt>
      <trkpt lat="48.59261" lon="1.73318">
        <ele>155.8</ele>
        <time>2023-03-16T09:44:55Z</time>
      </trkpt>
      <trkpt lat="48.59264" lon="1.73304">
        <ele>155.4</ele>
        <time>2023-03-16T09:45:01Z</time>
      </trkpt>
      <trkpt lat="48.59267" lon="1.73292">
        <ele>155.2</ele>
        <time>2023-03-16T09:45:07Z</time>
      </trkpt>
      <trkpt lat="48.59272" lon="1.73278">
        <ele>155.4</ele>
        <time>2023-03-16T09:45:14Z</time>
      </trkpt>
      <trkpt lat="48.59276" lon="1.73264">
        <ele>155.3</ele>
        <time>2023-03-16T09:45:21Z</time>
      </trkpt>
      <trkpt lat="48.59281" lon="1.73251">
        <ele>155.2</ele>
        <time>2023-03-16T09:45:28Z</time>
      </trkpt>
      <trkpt lat="48.59286" lon="1.73238">
        <ele>154.8</ele>
        <time>2023-03-16T09:45:34Z</time>
      </trkpt>
      <trkpt lat="48.5929" lon="1.73225">
        <ele>154.5</ele>
        <time>2023-03-16T09:45:40Z</time>
      </trkpt>
      <trkpt lat="48.59294" lon="1.73212">
        <ele>153.9</ele>
        <time>2023-03-16T09:45:49Z</time>
      </trkpt>
      <trkpt lat="48.59291" lon="1.73198">
        <ele>152.3</ele>
        <time>2023-03-16T09:45:58Z</time>
      </trkpt>
      <trkpt lat="48.59288" lon="1.73185">
        <ele>150.9</ele>
        <time>2023-03-16T09:46:04Z</time>
      </trkpt>
      <trkpt lat="48.59284" lon="1.73171">
        <ele>149.7</ele>
        <time>2023-03-16T09:46:12Z</time>
      </trkpt>
      <trkpt lat="48.5928" lon="1.73159">
        <ele>148</ele>
        <time>2023-03-16T09:46:19Z</time>
      </trkpt>
      <trkpt lat="48.59275" lon="1.73146">
        <ele>145.5</ele>
        <time>2023-03-16T09:46:28Z</time>
      </trkpt>
      <trkpt lat="48.59272" lon="1.73132">
        <ele>143.6</ele>
        <time>2023-03-16T09:46:51Z</time>
      </trkpt>
      <trkpt lat="48.59266" lon="1.73122">
        <ele>140.7</ele>
        <time>2023-03-16T09:46:58Z</time>
      </trkpt>
      <trkpt lat="48.59258" lon="1.73116">
        <ele>137.4</ele>
        <time>2023-03-16T09:47:08Z</time>
      </trkpt>
      <trkpt lat="48.59249" lon="1.73111">
        <ele>133.7</ele>
        <time>2023-03-16T09:47:18Z</time>
      </trkpt>
      <trkpt lat="48.59249" lon="1.73096">
        <ele>132.2</ele>
        <time>2023-03-16T09:47:34Z</time>
      </trkpt>
      <trkpt lat="48.59243" lon="1.73085">
        <ele>130.2</ele>
        <time>2023-03-16T09:47:51Z</time>
      </trkpt>
      <trkpt lat="48.59234" lon="1.73079">
        <ele>128.5</ele>
        <time>2023-03-16T09:48:02Z</time>
      </trkpt>
      <trkpt lat="48.59235" lon="1.73065">
        <ele>127.5</ele>
        <time>2023-03-16T09:48:45Z</time>
      </trkpt>
      <trkpt lat="48.5924" lon="1.73053">
        <ele>127.3</ele>
        <time>2023-03-16T09:48:58Z</time>
      </trkpt>
      <trkpt lat="48.59246" lon="1.73041">
        <ele>127.7</ele>
        <time>2023-03-16T09:49:54Z</time>
      </trkpt>
      <trkpt lat="48.5925" lon="1.73029">
        <ele>128</ele>
        <time>2023-03-16T09:50:03Z</time>
      </trkpt>
      <trkpt lat="48.59255" lon="1.73016">
        <ele>129.1</ele>
        <time>2023-03-16T09:50:12Z</time>
      </trkpt>
      <trkpt lat="48.59257" lon="1.73002">
        <ele>129.3</ele>
        <time>2023-03-16T09:50:22Z</time>
      </trkpt>
      <trkpt lat="48.59261" lon="1.72989">
        <ele>129.7</ele>
        <time>2023-03-16T09:50:31Z</time>
      </trkpt>
      <trkpt lat="48.59266" lon="1.72978">
        <ele>130.5</ele>
        <time>2023-03-16T09:50:39Z</time>
      </trkpt>
      <trkpt lat="48.59267" lon="1.72964">
        <ele>130.6</ele>
        <time>2023-03-16T09:50:47Z</time>
      </trkpt>
      <trkpt lat="48.59269" lon="1.7295">
        <ele>130.8</ele>
        <time>2023-03-16T09:50:58Z</time>
      </trkpt>
      <trkpt lat="48.59273" lon="1.72937">
        <ele>131.9</ele>
        <time>2023-03-16T09:51:06Z</time>
      </trkpt>
      <trkpt lat="48.59277" lon="1.72923">
        <ele>133.5</ele>
        <time>2023-03-16T09:51:14Z</time>
      </trkpt>
      <trkpt lat="48.59281" lon="1.7291">
        <ele>134.2</ele>
        <time>2023-03-16T09:51:21Z</time>
      </trkpt>
      <trkpt lat="48.59286" lon="1.72897">
        <ele>134.4</ele>
        <time>2023-03-16T09:51:28Z</time>
      </trkpt>
      <trkpt lat="48.59293" lon="1.72886">
        <ele>135.1</ele>
        <time>2023-03-16T09:51:35Z</time>
      </trkpt>
      <trkpt lat="48.59299" lon="1.72876">
        <ele>135.8</ele>
        <time>2023-03-16T09:51:42Z</time>
      </trkpt>
      <trkpt lat="48.59306" lon="1.72865">
        <ele>136.3</ele>
        <time>2023-03-16T09:51:50Z</time>
      </trkpt>
      <trkpt lat="48.59314" lon="1.72857">
        <ele>136.9</ele>
        <time>2023-03-16T09:51:57Z</time>
      </trkpt>
      <trkpt lat="48.59323" lon="1.72849">
        <ele>137.7</ele>
        <time>2023-03-16T09:52:05Z</time>
      </trkpt>
      <trkpt lat="48.59331" lon="1.72839">
        <ele>138.1</ele>
        <time>2023-03-16T09:52:12Z</time>
      </trkpt>
      <trkpt lat="48.59338" lon="1.72829">
        <ele>138.4</ele>
        <time>2023-03-16T09:52:19Z</time>
      </trkpt>
      <trkpt lat="48.59344" lon="1.72818">
        <ele>138.4</ele>
        <time>2023-03-16T09:52:27Z</time>
      </trkpt>
      <trkpt lat="48.59349" lon="1.72806">
        <ele>138.4</ele>
        <time>2023-03-16T09:52:34Z</time>
      </trkpt>
      <trkpt lat="48.59353" lon="1.72794">
        <ele>139.5</ele>
        <time>2023-03-16T09:52:43Z</time>
      </trkpt>
      <trkpt lat="48.59353" lon="1.7278">
        <ele>139.1</ele>
        <time>2023-03-16T09:52:55Z</time>
      </trkpt>
      <trkpt lat="48.59355" lon="1.72766">
        <ele>138.4</ele>
        <time>2023-03-16T09:53:05Z</time>
      </trkpt>
      <trkpt lat="48.59358" lon="1.72753">
        <ele>138.3</ele>
        <time>2023-03-16T09:53:16Z</time>
      </trkpt>
      <trkpt lat="48.59359" lon="1.72739">
        <ele>135.1</ele>
        <time>2023-03-16T09:53:24Z</time>
      </trkpt>
      <trkpt lat="48.59364" lon="1.72727">
        <ele>133.7</ele>
        <time>2023-03-16T09:53:45Z</time>
      </trkpt>
      <trkpt lat="48.59368" lon="1.72715">
        <ele>132.5</ele>
        <time>2023-03-16T09:53:53Z</time>
      </trkpt>
      <trkpt lat="48.59372" lon="1.727">
        <ele>131.3</ele>
        <time>2023-03-16T09:54:01Z</time>
      </trkpt>
      <trkpt lat="48.59376" lon="1.72686">
        <ele>130.8</ele>
        <time>2023-03-16T09:54:08Z</time>
      </trkpt>
      <trkpt lat="48.59383" lon="1.72676">
        <ele>130.5</ele>
        <time>2023-03-16T09:54:15Z</time>
      </trkpt>
      <trkpt lat="48.59392" lon="1.72667">
        <ele>130.7</ele>
        <time>2023-03-16T09:54:23Z</time>
      </trkpt>
      <trkpt lat="48.59399" lon="1.72657">
        <ele>132.6</ele>
        <time>2023-03-16T09:54:31Z</time>
      </trkpt>
      <trkpt lat="48.59404" lon="1.72646">
        <ele>132.8</ele>
        <time>2023-03-16T09:54:39Z</time>
      </trkpt>
      <trkpt lat="48.59404" lon="1.72631">
        <ele>130.9</ele>
        <time>2023-03-16T09:54:46Z</time>
      </trkpt>
      <trkpt lat="48.59407" lon="1.72618">
        <ele>130.5</ele>
        <time>2023-03-16T09:54:55Z</time>
      </trkpt>
      <trkpt lat="48.59406" lon="1.72603">
        <ele>129</ele>
        <time>2023-03-16T09:55:01Z</time>
      </trkpt>
      <trkpt lat="48.59411" lon="1.72589">
        <ele>129.2</ele>
        <time>2023-03-16T09:55:08Z</time>
      </trkpt>
      <trkpt lat="48.59414" lon="1.72576">
        <ele>128.8</ele>
        <time>2023-03-16T09:55:15Z</time>
      </trkpt>
      <trkpt lat="48.59418" lon="1.72563">
        <ele>128.9</ele>
        <time>2023-03-16T09:55:22Z</time>
      </trkpt>
      <trkpt lat="48.59416" lon="1.72549">
        <ele>126.7</ele>
        <time>2023-03-16T09:55:28Z</time>
      </trkpt>
      <trkpt lat="48.5942" lon="1.72535">
        <ele>127.6</ele>
        <time>2023-03-16T09:55:36Z</time>
      </trkpt>
      <trkpt lat="48.59425" lon="1.72523">
        <ele>128.9</ele>
        <time>2023-03-16T09:56:08Z</time>
      </trkpt>
      <trkpt lat="48.59432" lon="1.72513">
        <ele>130.5</ele>
        <time>2023-03-16T09:56:18Z</time>
      </trkpt>
      <trkpt lat="48.59434" lon="1.72499">
        <ele>130.5</ele>
        <time>2023-03-16T09:56:26Z</time>
      </trkpt>
      <trkpt lat="48.59435" lon="1.72484">
        <ele>131.2</ele>
        <time>2023-03-16T09:56:35Z</time>
      </trkpt>
      <trkpt lat="48.5944" lon="1.72473">
        <ele>133.3</ele>
        <time>2023-03-16T09:56:44Z</time>
      </trkpt>
      <trkpt lat="48.59445" lon="1.72462">
        <ele>134.6</ele>
        <time>2023-03-16T09:56:52Z</time>
      </trkpt>
      <trkpt lat="48.59449" lon="1.72449">
        <ele>134.5</ele>
        <time>2023-03-16T09:57:03Z</time>
      </trkpt>
      <trkpt lat="48.59458" lon="1.72452">
        <ele>137.3</ele>
        <time>2023-03-16T09:57:14Z</time>
      </trkpt>
      <trkpt lat="48.59468" lon="1.72453">
        <ele>140</ele>
        <time>2023-03-16T09:57:25Z</time>
      </trkpt>
      <trkpt lat="48.59477" lon="1.72454">
        <ele>142.6</ele>
        <time>2023-03-16T09:57:46Z</time>
      </trkpt>
      <trkpt lat="48.59486" lon="1.72454">
        <ele>145</ele>
        <time>2023-03-16T09:57:53Z</time>
      </trkpt>
      <trkpt lat="48.59496" lon="1.72458">
        <ele>147.9</ele>
        <time>2023-03-16T09:58:02Z</time>
      </trkpt>
      <trkpt lat="48.59505" lon="1.72463">
        <ele>150.5</ele>
        <time>2023-03-16T09:58:12Z</time>
      </trkpt>
      <trkpt lat="48.59514" lon="1.72462">
        <ele>152.1</ele>
        <time>2023-03-16T09:58:22Z</time>
      </trkpt>
      <trkpt lat="48.59523" lon="1.72467">
        <ele>154</ele>
        <time>2023-03-16T09:58:32Z</time>
      </trkpt>
      <trkpt lat="48.59532" lon="1.7247">
        <ele>155.3</ele>
        <time>2023-03-16T09:58:41Z</time>
      </trkpt>
      <trkpt lat="48.59541" lon="1.72474">
        <ele>156</ele>
        <time>2023-03-16T09:58:50Z</time>
      </trkpt>
      <trkpt lat="48.5955" lon="1.72475">
        <ele>156.6</ele>
        <time>2023-03-16T09:58:58Z</time>
      </trkpt>
      <trkpt lat="48.59558" lon="1.72466">
        <ele>156.7</ele>
        <time>2023-03-16T09:59:06Z</time>
      </trkpt>
      <trkpt lat="48.59564" lon="1.72456">
        <ele>156.1</ele>
        <time>2023-03-16T09:59:17Z</time>
      </trkpt>
      <trkpt lat="48.59571" lon="1.72447">
        <ele>155.5</ele>
        <time>2023-03-16T10:00:19Z</time>
      </trkpt>
      <trkpt lat="48.59576" lon="1.72436">
        <ele>155.5</ele>
        <time>2023-03-16T10:01:08Z</time>
      </trkpt>
      <trkpt lat="48.5958" lon="1.72422">
        <ele>155.8</ele>
        <time>2023-03-16T10:01:18Z</time>
      </trkpt>
      <trkpt lat="48.59583" lon="1.72408">
        <ele>156</ele>
        <time>2023-03-16T10:01:27Z</time>
      </trkpt>
      <trkpt lat="48.59586" lon="1.72395">
        <ele>155.7</ele>
        <time>2023-03-16T10:01:34Z</time>
      </trkpt>
      <trkpt lat="48.5959" lon="1.72382">
        <ele>155.1</ele>
        <time>2023-03-16T10:01:42Z</time>
      </trkpt>
      <trkpt lat="48.59595" lon="1.7237">
        <ele>154.4</ele>
        <time>2023-03-16T10:01:51Z</time>
      </trkpt>
      <trkpt lat="48.59599" lon="1.72357">
        <ele>153.9</ele>
        <time>2023-03-16T10:01:59Z</time>
      </trkpt>
      <trkpt lat="48.59603" lon="1.72343">
        <ele>154.1</ele>
        <time>2023-03-16T10:02:07Z</time>
      </trkpt>
      <trkpt lat="48.59607" lon="1.7233">
        <ele>154.5</ele>
        <time>2023-03-16T10:02:15Z</time>
      </trkpt>
      <trkpt lat="48.5961" lon="1.72316">
        <ele>155.3</ele>
        <time>2023-03-16T10:02:23Z</time>
      </trkpt>
      <trkpt lat="48.59615" lon="1.72303">
        <ele>155.7</ele>
        <time>2023-03-16T10:02:31Z</time>
      </trkpt>
      <trkpt lat="48.59621" lon="1.72292">
        <ele>155.5</ele>
        <time>2023-03-16T10:02:38Z</time>
      </trkpt>
      <trkpt lat="48.59627" lon="1.72281">
        <ele>155.8</ele>
        <time>2023-03-16T10:02:46Z</time>
      </trkpt>
      <trkpt lat="48.59634" lon="1.72271">
        <ele>156</ele>
        <time>2023-03-16T10:02:55Z</time>
      </trkpt>
      <trkpt lat="48.59643" lon="1.72264">
        <ele>156.3</ele>
        <time>2023-03-16T10:03:04Z</time>
      </trkpt>
      <trkpt lat="48.59649" lon="1.72253">
        <ele>156.8</ele>
        <time>2023-03-16T10:03:11Z</time>
      </trkpt>
      <trkpt lat="48.5965" lon="1.72238">
        <ele>156.4</ele>
        <time>2023-03-16T10:03:19Z</time>
      </trkpt>
      <trkpt lat="48.59643" lon="1.72228">
        <ele>155.5</ele>
        <time>2023-03-16T10:03:27Z</time>
      </trkpt>
      <trkpt lat="48.59638" lon="1.72217">
        <ele>154.8</ele>
        <time>2023-03-16T10:03:37Z</time>
      </trkpt>
      <trkpt lat="48.5964" lon="1.72204">
        <ele>155.1</ele>
        <time>2023-03-16T10:03:45Z</time>
      </trkpt>
      <trkpt lat="48.5964" lon="1.72189">
        <ele>154.9</ele>
        <time>2023-03-16T10:03:52Z</time>
      </trkpt>
      <trkpt lat="48.59642" lon="1.72175">
        <ele>154.5</ele>
        <time>2023-03-16T10:03:59Z</time>
      </trkpt>
      <trkpt lat="48.59643" lon="1.7216">
        <ele>154.1</ele>
        <time>2023-03-16T10:04:06Z</time>
      </trkpt>
      <trkpt lat="48.59644" lon="1.72145">
        <ele>153.7</ele>
        <time>2023-03-16T10:04:13Z</time>
      </trkpt>
      <trkpt lat="48.59649" lon="1.72132">
        <ele>153.3</ele>
        <time>2023-03-16T10:04:22Z</time>
      </trkpt>
      <trkpt lat="48.59653" lon="1.72119">
        <ele>152.7</ele>
        <time>2023-03-16T10:04:30Z</time>
      </trkpt>
      <trkpt lat="48.59659" lon="1.72108">
        <ele>153.2</ele>
        <time>2023-03-16T10:04:37Z</time>
      </trkpt>
      <trkpt lat="48.59664" lon="1.72096">
        <ele>154.2</ele>
        <time>2023-03-16T10:04:45Z</time>
      </trkpt>
      <trkpt lat="48.59667" lon="1.72082">
        <ele>155</ele>
        <time>2023-03-16T10:04:54Z</time>
      </trkpt>
      <trkpt lat="48.5967" lon="1.72068">
        <ele>154.6</ele>
        <time>2023-03-16T10:05:01Z</time>
      </trkpt>
      <trkpt lat="48.59671" lon="1.72054">
        <ele>154.3</ele>
        <time>2023-03-16T10:05:08Z</time>
      </trkpt>
      <trkpt lat="48.59674" lon="1.72039">
        <ele>154.5</ele>
        <time>2023-03-16T10:05:15Z</time>
      </trkpt>
      <trkpt lat="48.59677" lon="1.72024">
        <ele>154.8</ele>
        <time>2023-03-16T10:05:23Z</time>
      </trkpt>
      <trkpt lat="48.59686" lon="1.72021">
        <ele>155.4</ele>
        <time>2023-03-16T10:05:42Z</time>
      </trkpt>
      <trkpt lat="48.59694" lon="1.72028">
        <ele>156</ele>
        <time>2023-03-16T10:05:49Z</time>
      </trkpt>
      <trkpt lat="48.59704" lon="1.72032">
        <ele>156.7</ele>
        <time>2023-03-16T10:05:57Z</time>
      </trkpt>
      <trkpt lat="48.59713" lon="1.72032">
        <ele>157.3</ele>
        <time>2023-03-16T10:06:04Z</time>
      </trkpt>
      <trkpt lat="48.59722" lon="1.72034">
        <ele>158</ele>
        <time>2023-03-16T10:06:12Z</time>
      </trkpt>
      <trkpt lat="48.59731" lon="1.72028">
        <ele>158.3</ele>
        <time>2023-03-16T10:06:23Z</time>
      </trkpt>
      <trkpt lat="48.59736" lon="1.72016">
        <ele>158.3</ele>
        <time>2023-03-16T10:06:50Z</time>
      </trkpt>
      <trkpt lat="48.59745" lon="1.72011">
        <ele>158.3</ele>
        <time>2023-03-16T10:06:58Z</time>
      </trkpt>
      <trkpt lat="48.59754" lon="1.72015">
        <ele>158.4</ele>
        <time>2023-03-16T10:07:05Z</time>
      </trkpt>
      <trkpt lat="48.59763" lon="1.72022">
        <ele>158.6</ele>
        <time>2023-03-16T10:07:12Z</time>
      </trkpt>
      <trkpt lat="48.59771" lon="1.72029">
        <ele>159</ele>
        <time>2023-03-16T10:07:21Z</time>
      </trkpt>
      <trkpt lat="48.5978" lon="1.72035">
        <ele>159.1</ele>
        <time>2023-03-16T10:07:30Z</time>
      </trkpt>
      <trkpt lat="48.59789" lon="1.72041">
        <ele>158.9</ele>
        <time>2023-03-16T10:07:38Z</time>
      </trkpt>
      <trkpt lat="48.59798" lon="1.72047">
        <ele>159.3</ele>
        <time>2023-03-16T10:07:46Z</time>
      </trkpt>
      <trkpt lat="48.59806" lon="1.72053">
        <ele>160.5</ele>
        <time>2023-03-16T10:07:53Z</time>
      </trkpt>
      <trkpt lat="48.59815" lon="1.72059">
        <ele>161</ele>
        <time>2023-03-16T10:07:59Z</time>
      </trkpt>
      <trkpt lat="48.59824" lon="1.72066">
        <ele>161.2</ele>
        <time>2023-03-16T10:08:06Z</time>
      </trkpt>
      <trkpt lat="48.59832" lon="1.72072">
        <ele>161.6</ele>
        <time>2023-03-16T10:08:12Z</time>
      </trkpt>
      <trkpt lat="48.59841" lon="1.7208">
        <ele>161.9</ele>
        <time>2023-03-16T10:08:19Z</time>
      </trkpt>
      <trkpt lat="48.5985" lon="1.72086">
        <ele>162</ele>
        <time>2023-03-16T10:08:26Z</time>
      </trkpt>
      <trkpt lat="48.59859" lon="1.72089">
        <ele>162</ele>
        <time>2023-03-16T10:08:33Z</time>
      </trkpt>
      <trkpt lat="48.59868" lon="1.72084">
        <ele>162</ele>
        <time>2023-03-16T10:08:41Z</time>
      </trkpt>
      <trkpt lat="48.59875" lon="1.72073">
        <ele>162</ele>
        <time>2023-03-16T10:08:48Z</time>
      </trkpt>
      <trkpt lat="48.59878" lon="1.72061">
        <ele>162</ele>
        <time>2023-03-16T10:08:56Z</time>
      </trkpt>
      <trkpt lat="48.59884" lon="1.72048">
        <ele>162</ele>
        <time>2023-03-16T10:09:03Z</time>
      </trkpt>
      <trkpt lat="48.59888" lon="1.72036">
        <ele>162</ele>
        <time>2023-03-16T10:09:10Z</time>
      </trkpt>
      <trkpt lat="48.59891" lon="1.72022">
        <ele>162</ele>
        <time>2023-03-16T10:09:17Z</time>
      </trkpt>
      <trkpt lat="48.59896" lon="1.72009">
        <ele>162</ele>
        <time>2023-03-16T10:09:25Z</time>
      </trkpt>
      <trkpt lat="48.59901" lon="1.71995">
        <ele>162</ele>
        <time>2023-03-16T10:09:33Z</time>
      </trkpt>
      <trkpt lat="48.59904" lon="1.71981">
        <ele>162</ele>
        <time>2023-03-16T10:09:40Z</time>
      </trkpt>
      <trkpt lat="48.59908" lon="1.71967">
        <ele>162</ele>
        <time>2023-03-16T10:09:47Z</time>
      </trkpt>
      <trkpt lat="48.59913" lon="1.71954">
        <ele>162</ele>
        <time>2023-03-16T10:09:54Z</time>
      </trkpt>
      <trkpt lat="48.59917" lon="1.71941">
        <ele>162</ele>
        <time>2023-03-16T10:10:01Z</time>
      </trkpt>
      <trkpt lat="48.59921" lon="1.71929">
        <ele>162</ele>
        <time>2023-03-16T10:10:08Z</time>
      </trkpt>
      <trkpt lat="48.59925" lon="1.71916">
        <ele>162</ele>
        <time>2023-03-16T10:10:15Z</time>
      </trkpt>
      <trkpt lat="48.59928" lon="1.71904">
        <ele>162</ele>
        <time>2023-03-16T10:10:21Z</time>
      </trkpt>
      <trkpt lat="48.59932" lon="1.71891">
        <ele>162</ele>
        <time>2023-03-16T10:10:27Z</time>
      </trkpt>
      <trkpt lat="48.59936" lon="1.71878">
        <ele>161.9</ele>
        <time>2023-03-16T10:10:33Z</time>
      </trkpt>
      <trkpt lat="48.5994" lon="1.71865">
        <ele>161.9</ele>
        <time>2023-03-16T10:10:40Z</time>
      </trkpt>
      <trkpt lat="48.59941" lon="1.71851">
        <ele>161.6</ele>
        <time>2023-03-16T10:10:47Z</time>
      </trkpt>
      <trkpt lat="48.59946" lon="1.71838">
        <ele>161.2</ele>
        <time>2023-03-16T10:10:53Z</time>
      </trkpt>
      <trkpt lat="48.5995" lon="1.71823">
        <ele>161.2</ele>
        <time>2023-03-16T10:11:00Z</time>
      </trkpt>
      <trkpt lat="48.59955" lon="1.71811">
        <ele>161.4</ele>
        <time>2023-03-16T10:11:07Z</time>
      </trkpt>
      <trkpt lat="48.59959" lon="1.71798">
        <ele>161.4</ele>
        <time>2023-03-16T10:11:14Z</time>
      </trkpt>
      <trkpt lat="48.59963" lon="1.71785">
        <ele>161.2</ele>
        <time>2023-03-16T10:11:21Z</time>
      </trkpt>
      <trkpt lat="48.59966" lon="1.71772">
        <ele>161</ele>
        <time>2023-03-16T10:11:28Z</time>
      </trkpt>
      <trkpt lat="48.5997" lon="1.71759">
        <ele>161</ele>
        <time>2023-03-16T10:11:35Z</time>
      </trkpt>
      <trkpt lat="48.59974" lon="1.71745">
        <ele>161</ele>
        <time>2023-03-16T10:11:42Z</time>
      </trkpt>
      <trkpt lat="48.59978" lon="1.71732">
        <ele>161</ele>
        <time>2023-03-16T10:11:49Z</time>
      </trkpt>
      <trkpt lat="48.59983" lon="1.7172">
        <ele>161</ele>
        <time>2023-03-16T10:11:56Z</time>
      </trkpt>
      <trkpt lat="48.59988" lon="1.71707">
        <ele>161</ele>
        <time>2023-03-16T10:12:03Z</time>
      </trkpt>
      <trkpt lat="48.59992" lon="1.71694">
        <ele>161</ele>
        <time>2023-03-16T10:12:10Z</time>
      </trkpt>
      <trkpt lat="48.59995" lon="1.7168">
        <ele>160.9</ele>
        <time>2023-03-16T10:12:17Z</time>
      </trkpt>
      <trkpt lat="48.6" lon="1.71666">
        <ele>161</ele>
        <time>2023-03-16T10:12:23Z</time>
      </trkpt>
      <trkpt lat="48.60005" lon="1.71654">
        <ele>161</ele>
        <time>2023-03-16T10:12:28Z</time>
      </trkpt>
      <trkpt lat="48.60009" lon="1.71642">
        <ele>161</ele>
        <time>2023-03-16T10:12:34Z</time>
      </trkpt>
      <trkpt lat="48.60016" lon="1.7163">
        <ele>160.9</ele>
        <time>2023-03-16T10:12:42Z</time>
      </trkpt>
      <trkpt lat="48.60021" lon="1.71619">
        <ele>160.8</ele>
        <time>2023-03-16T10:12:50Z</time>
      </trkpt>
      <trkpt lat="48.60026" lon="1.71605">
        <ele>160.7</ele>
        <time>2023-03-16T10:12:58Z</time>
      </trkpt>
      <trkpt lat="48.6003" lon="1.71593">
        <ele>160.4</ele>
        <time>2023-03-16T10:13:05Z</time>
      </trkpt>
      <trkpt lat="48.60036" lon="1.7158">
        <ele>160.3</ele>
        <time>2023-03-16T10:13:12Z</time>
      </trkpt>
      <trkpt lat="48.60042" lon="1.71569">
        <ele>160.5</ele>
        <time>2023-03-16T10:13:20Z</time>
      </trkpt>
      <trkpt lat="48.60047" lon="1.71557">
        <ele>160.7</ele>
        <time>2023-03-16T10:13:28Z</time>
      </trkpt>
      <trkpt lat="48.60053" lon="1.71545">
        <ele>160.6</ele>
        <time>2023-03-16T10:13:36Z</time>
      </trkpt>
      <trkpt lat="48.60052" lon="1.71531">
        <ele>160.1</ele>
        <time>2023-03-16T10:13:43Z</time>
      </trkpt>
      <trkpt lat="48.60046" lon="1.71521">
        <ele>160</ele>
        <time>2023-03-16T10:13:49Z</time>
      </trkpt>
      <trkpt lat="48.60037" lon="1.71514">
        <ele>160</ele>
        <time>2023-03-16T10:13:55Z</time>
      </trkpt>
      <trkpt lat="48.60029" lon="1.71507">
        <ele>160</ele>
        <time>2023-03-16T10:14:01Z</time>
      </trkpt>
      <trkpt lat="48.6002" lon="1.715">
        <ele>159.7</ele>
        <time>2023-03-16T10:14:07Z</time>
      </trkpt>
      <trkpt lat="48.60012" lon="1.71493">
        <ele>159.4</ele>
        <time>2023-03-16T10:14:13Z</time>
      </trkpt>
      <trkpt lat="48.60004" lon="1.71484">
        <ele>159.1</ele>
        <time>2023-03-16T10:14:20Z</time>
      </trkpt>
      <trkpt lat="48.59995" lon="1.71476">
        <ele>158.8</ele>
        <time>2023-03-16T10:14:27Z</time>
      </trkpt>
      <trkpt lat="48.59987" lon="1.7147">
        <ele>158.5</ele>
        <time>2023-03-16T10:14:33Z</time>
      </trkpt>
      <trkpt lat="48.59978" lon="1.71463">
        <ele>157.9</ele>
        <time>2023-03-16T10:14:40Z</time>
      </trkpt>
      <trkpt lat="48.59969" lon="1.71456">
        <ele>157.3</ele>
        <time>2023-03-16T10:14:47Z</time>
      </trkpt>
      <trkpt lat="48.5996" lon="1.7145">
        <ele>156.8</ele>
        <time>2023-03-16T10:14:53Z</time>
      </trkpt>
      <trkpt lat="48.59952" lon="1.71444">
        <ele>156.3</ele>
        <time>2023-03-16T10:14:59Z</time>
      </trkpt>
      <trkpt lat="48.59944" lon="1.71435">
        <ele>155.9</ele>
        <time>2023-03-16T10:15:06Z</time>
      </trkpt>
      <trkpt lat="48.5994" lon="1.71422">
        <ele>155.4</ele>
        <time>2023-03-16T10:15:12Z</time>
      </trkpt>
      <trkpt lat="48.59938" lon="1.71407">
        <ele>154.9</ele>
        <time>2023-03-16T10:15:19Z</time>
      </trkpt>
      <trkpt lat="48.5994" lon="1.71392">
        <ele>154.7</ele>
        <time>2023-03-16T10:15:27Z</time>
      </trkpt>
      <trkpt lat="48.59931" lon="1.71396">
        <ele>154.1</ele>
        <time>2023-03-16T10:16:07Z</time>
      </trkpt>
      <trkpt lat="48.59924" lon="1.71405">
        <ele>153.2</ele>
        <time>2023-03-16T10:16:15Z</time>
      </trkpt>
      <trkpt lat="48.59916" lon="1.71411">
        <ele>152</ele>
        <time>2023-03-16T10:16:24Z</time>
      </trkpt>
      <trkpt lat="48.5991" lon="1.71399">
        <ele>150.9</ele>
        <time>2023-03-16T10:16:53Z</time>
      </trkpt>
      <trkpt lat="48.5991" lon="1.71384">
        <ele>150.8</ele>
        <time>2023-03-16T10:17:01Z</time>
      </trkpt>
      <trkpt lat="48.59909" lon="1.71369">
        <ele>150.2</ele>
        <time>2023-03-16T10:17:09Z</time>
      </trkpt>
      <trkpt lat="48.59909" lon="1.71355">
        <ele>149.4</ele>
        <time>2023-03-16T10:17:15Z</time>
      </trkpt>
      <trkpt lat="48.59914" lon="1.71345">
        <ele>150.1</ele>
        <time>2023-03-16T10:17:23Z</time>
      </trkpt>
      <trkpt lat="48.59923" lon="1.71337">
        <ele>150.2</ele>
        <time>2023-03-16T10:17:31Z</time>
      </trkpt>
      <trkpt lat="48.59932" lon="1.71333">
        <ele>149.5</ele>
        <time>2023-03-16T10:17:39Z</time>
      </trkpt>
      <trkpt lat="48.59941" lon="1.71329">
        <ele>149.3</ele>
        <time>2023-03-16T10:17:46Z</time>
      </trkpt>
      <trkpt lat="48.5995" lon="1.71322">
        <ele>149.9</ele>
        <time>2023-03-16T10:17:56Z</time>
      </trkpt>
      <trkpt lat="48.59955" lon="1.71311">
        <ele>151.2</ele>
        <time>2023-03-16T10:18:03Z</time>
      </trkpt>
      <trkpt lat="48.59963" lon="1.71301">
        <ele>152.6</ele>
        <time>2023-03-16T10:18:09Z</time>
      </trkpt>
      <trkpt lat="48.59971" lon="1.71293">
        <ele>153.8</ele>
        <time>2023-03-16T10:18:16Z</time>
      </trkpt>
      <trkpt lat="48.59977" lon="1.71283">
        <ele>153.9</ele>
        <time>2023-03-16T10:18:22Z</time>
      </trkpt>
      <trkpt lat="48.59985" lon="1.71275">
        <ele>153.9</ele>
        <time>2023-03-16T10:18:29Z</time>
      </trkpt>
      <trkpt lat="48.59994" lon="1.71271">
        <ele>153.8</ele>
        <time>2023-03-16T10:18:36Z</time>
      </trkpt>
      <trkpt lat="48.6" lon="1.71261">
        <ele>153.4</ele>
        <time>2023-03-16T10:18:42Z</time>
      </trkpt>
      <trkpt lat="48.60009" lon="1.71255">
        <ele>154.1</ele>
        <time>2023-03-16T10:18:49Z</time>
      </trkpt>
      <trkpt lat="48.60018" lon="1.7125">
        <ele>154.9</ele>
        <time>2023-03-16T10:18:56Z</time>
      </trkpt>
      <trkpt lat="48.60025" lon="1.71241">
        <ele>155.3</ele>
        <time>2023-03-16T10:19:02Z</time>
      </trkpt>
      <trkpt lat="48.60034" lon="1.71235">
        <ele>155</ele>
        <time>2023-03-16T10:19:10Z</time>
      </trkpt>
      <trkpt lat="48.60042" lon="1.71227">
        <ele>154.8</ele>
        <time>2023-03-16T10:19:18Z</time>
      </trkpt>
      <trkpt lat="48.60049" lon="1.71216">
        <ele>155.2</ele>
        <time>2023-03-16T10:19:25Z</time>
      </trkpt>
      <trkpt lat="48.60054" lon="1.71203">
        <ele>155.8</ele>
        <time>2023-03-16T10:19:31Z</time>
      </trkpt>
      <trkpt lat="48.60059" lon="1.71188">
        <ele>156.6</ele>
        <time>2023-03-16T10:19:38Z</time>
      </trkpt>
      <trkpt lat="48.60065" lon="1.71177">
        <ele>157.8</ele>
        <time>2023-03-16T10:19:45Z</time>
      </trkpt>
      <trkpt lat="48.60071" lon="1.71164">
        <ele>158.6</ele>
        <time>2023-03-16T10:19:53Z</time>
      </trkpt>
      <trkpt lat="48.60077" lon="1.71152">
        <ele>158.5</ele>
        <time>2023-03-16T10:20:00Z</time>
      </trkpt>
      <trkpt lat="48.6008" lon="1.71139">
        <ele>157.9</ele>
        <time>2023-03-16T10:20:06Z</time>
      </trkpt>
      <trkpt lat="48.60084" lon="1.71126">
        <ele>157.5</ele>
        <time>2023-03-16T10:20:14Z</time>
      </trkpt>
      <trkpt lat="48.60081" lon="1.71113">
        <ele>157.1</ele>
        <time>2023-03-16T10:20:19Z</time>
      </trkpt>
      <trkpt lat="48.60075" lon="1.71101">
        <ele>157.3</ele>
        <time>2023-03-16T10:20:26Z</time>
      </trkpt>
      <trkpt lat="48.60068" lon="1.7109">
        <ele>157.3</ele>
        <time>2023-03-16T10:20:33Z</time>
      </trkpt>
      <trkpt lat="48.6006" lon="1.7108">
        <ele>157.2</ele>
        <time>2023-03-16T10:20:41Z</time>
      </trkpt>
      <trkpt lat="48.60053" lon="1.7107">
        <ele>157</ele>
        <time>2023-03-16T10:20:47Z</time>
      </trkpt>
      <trkpt lat="48.60047" lon="1.7106">
        <ele>157</ele>
        <time>2023-03-16T10:20:54Z</time>
      </trkpt>
      <trkpt lat="48.60043" lon="1.71047">
        <ele>156.3</ele>
        <time>2023-03-16T10:21:00Z</time>
      </trkpt>
      <trkpt lat="48.60046" lon="1.71032">
        <ele>155.5</ele>
        <time>2023-03-16T10:23:25Z</time>
      </trkpt>
      <trkpt lat="48.60048" lon="1.71018">
        <ele>154.8</ele>
        <time>2023-03-16T10:23:51Z</time>
      </trkpt>
      <trkpt lat="48.6005" lon="1.71004">
        <ele>154</ele>
        <time>2023-03-16T10:24:01Z</time>
      </trkpt>
      <trkpt lat="48.60052" lon="1.70988">
        <ele>154</ele>
        <time>2023-03-16T10:24:09Z</time>
      </trkpt>
      <trkpt lat="48.60052" lon="1.70974">
        <ele>154</ele>
        <time>2023-03-16T10:24:16Z</time>
      </trkpt>
      <trkpt lat="48.60051" lon="1.70958">
        <ele>152.9</ele>
        <time>2023-03-16T10:24:23Z</time>
      </trkpt>
      <trkpt lat="48.60048" lon="1.70946">
        <ele>151.4</ele>
        <time>2023-03-16T10:24:30Z</time>
      </trkpt>
      <trkpt lat="48.60044" lon="1.70931">
        <ele>151.2</ele>
        <time>2023-03-16T10:24:38Z</time>
      </trkpt>
      <trkpt lat="48.60039" lon="1.70919">
        <ele>150.8</ele>
        <time>2023-03-16T10:24:46Z</time>
      </trkpt>
      <trkpt lat="48.60038" lon="1.70905">
        <ele>150.3</ele>
        <time>2023-03-16T10:24:54Z</time>
      </trkpt>
      <trkpt lat="48.60041" lon="1.7089">
        <ele>150.9</ele>
        <time>2023-03-16T10:25:02Z</time>
      </trkpt>
      <trkpt lat="48.60046" lon="1.70877">
        <ele>150.8</ele>
        <time>2023-03-16T10:25:11Z</time>
      </trkpt>
      <trkpt lat="48.60052" lon="1.70867">
        <ele>150.8</ele>
        <time>2023-03-16T10:25:19Z</time>
      </trkpt>
      <trkpt lat="48.60054" lon="1.70853">
        <ele>150.3</ele>
        <time>2023-03-16T10:25:26Z</time>
      </trkpt>
      <trkpt lat="48.60055" lon="1.70838">
        <ele>149.9</ele>
        <time>2023-03-16T10:25:32Z</time>
      </trkpt>
      <trkpt lat="48.60058" lon="1.70825">
        <ele>150.5</ele>
        <time>2023-03-16T10:25:38Z</time>
      </trkpt>
      <trkpt lat="48.60061" lon="1.70811">
        <ele>151.6</ele>
        <time>2023-03-16T10:25:44Z</time>
      </trkpt>
      <trkpt lat="48.60062" lon="1.70796">
        <ele>152</ele>
        <time>2023-03-16T10:25:50Z</time>
      </trkpt>
      <trkpt lat="48.60064" lon="1.70783">
        <ele>151.8</ele>
        <time>2023-03-16T10:25:57Z</time>
      </trkpt>
      <trkpt lat="48.60066" lon="1.70768">
        <ele>151</ele>
        <time>2023-03-16T10:26:04Z</time>
      </trkpt>
      <trkpt lat="48.60068" lon="1.70753">
        <ele>149.8</ele>
        <time>2023-03-16T10:26:10Z</time>
      </trkpt>
      <trkpt lat="48.6007" lon="1.70739">
        <ele>149.5</ele>
        <time>2023-03-16T10:26:16Z</time>
      </trkpt>
      <trkpt lat="48.60072" lon="1.70725">
        <ele>149.8</ele>
        <time>2023-03-16T10:26:22Z</time>
      </trkpt>
      <trkpt lat="48.60072" lon="1.70709">
        <ele>147.7</ele>
        <time>2023-03-16T10:26:28Z</time>
      </trkpt>
      <trkpt lat="48.60073" lon="1.70695">
        <ele>145.5</ele>
        <time>2023-03-16T10:26:33Z</time>
      </trkpt>
      <trkpt lat="48.60073" lon="1.7068">
        <ele>143.8</ele>
        <time>2023-03-16T10:26:39Z</time>
      </trkpt>
      <trkpt lat="48.60072" lon="1.70665">
        <ele>142</ele>
        <time>2023-03-16T10:26:46Z</time>
      </trkpt>
      <trkpt lat="48.60073" lon="1.7065">
        <ele>141.1</ele>
        <time>2023-03-16T10:26:53Z</time>
      </trkpt>
      <trkpt lat="48.60073" lon="1.70634">
        <ele>139.7</ele>
        <time>2023-03-16T10:26:59Z</time>
      </trkpt>
      <trkpt lat="48.60071" lon="1.70621">
        <ele>138.2</ele>
        <time>2023-03-16T10:27:04Z</time>
      </trkpt>
      <trkpt lat="48.6007" lon="1.70606">
        <ele>136.9</ele>
        <time>2023-03-16T10:27:11Z</time>
      </trkpt>
      <trkpt lat="48.6007" lon="1.7059">
        <ele>136</ele>
        <time>2023-03-16T10:27:18Z</time>
      </trkpt>
      <trkpt lat="48.60072" lon="1.70575">
        <ele>135</ele>
        <time>2023-03-16T10:27:25Z</time>
      </trkpt>
      <trkpt lat="48.60075" lon="1.70561">
        <ele>133.5</ele>
        <time>2023-03-16T10:27:32Z</time>
      </trkpt>
      <trkpt lat="48.60077" lon="1.70546">
        <ele>131.7</ele>
        <time>2023-03-16T10:27:39Z</time>
      </trkpt>
      <trkpt lat="48.60079" lon="1.70532">
        <ele>130</ele>
        <time>2023-03-16T10:27:46Z</time>
      </trkpt>
      <trkpt lat="48.60082" lon="1.70518">
        <ele>128.8</ele>
        <time>2023-03-16T10:27:53Z</time>
      </trkpt>
      <trkpt lat="48.60084" lon="1.70503">
        <ele>127.6</ele>
        <time>2023-03-16T10:28:01Z</time>
      </trkpt>
      <trkpt lat="48.60086" lon="1.70488">
        <ele>126.8</ele>
        <time>2023-03-16T10:28:09Z</time>
      </trkpt>
      <trkpt lat="48.60088" lon="1.70474">
        <ele>125.3</ele>
        <time>2023-03-16T10:28:16Z</time>
      </trkpt>
      <trkpt lat="48.60095" lon="1.70465">
        <ele>124.2</ele>
        <time>2023-03-16T10:28:23Z</time>
      </trkpt>
      <trkpt lat="48.60103" lon="1.70455">
        <ele>123.4</ele>
        <time>2023-03-16T10:28:30Z</time>
      </trkpt>
      <trkpt lat="48.60109" lon="1.70444">
        <ele>122.9</ele>
        <time>2023-03-16T10:28:36Z</time>
      </trkpt>
      <trkpt lat="48.60116" lon="1.70435">
        <ele>123.9</ele>
        <time>2023-03-16T10:28:43Z</time>
      </trkpt>
      <trkpt lat="48.60122" lon="1.70423">
        <ele>124.2</ele>
        <time>2023-03-16T10:28:50Z</time>
      </trkpt>
      <trkpt lat="48.60127" lon="1.70411">
        <ele>124.4</ele>
        <time>2023-03-16T10:28:57Z</time>
      </trkpt>
      <trkpt lat="48.60132" lon="1.70398">
        <ele>123.5</ele>
        <time>2023-03-16T10:29:04Z</time>
      </trkpt>
      <trkpt lat="48.60136" lon="1.70385">
        <ele>122.4</ele>
        <time>2023-03-16T10:29:11Z</time>
      </trkpt>
      <trkpt lat="48.60139" lon="1.70371">
        <ele>121.8</ele>
        <time>2023-03-16T10:29:18Z</time>
      </trkpt>
      <trkpt lat="48.6014" lon="1.70357">
        <ele>120.8</ele>
        <time>2023-03-16T10:29:25Z</time>
      </trkpt>
      <trkpt lat="48.60141" lon="1.70343">
        <ele>119.9</ele>
        <time>2023-03-16T10:29:32Z</time>
      </trkpt>
      <trkpt lat="48.60141" lon="1.70329">
        <ele>119.1</ele>
        <time>2023-03-16T10:29:40Z</time>
      </trkpt>
      <trkpt lat="48.60139" lon="1.70314">
        <ele>119</ele>
        <time>2023-03-16T10:30:06Z</time>
      </trkpt>
      <trkpt lat="48.60135" lon="1.703">
        <ele>119.2</ele>
        <time>2023-03-16T10:30:14Z</time>
      </trkpt>
      <trkpt lat="48.60125" lon="1.70298">
        <ele>119.5</ele>
        <time>2023-03-16T10:30:24Z</time>
      </trkpt>
      <trkpt lat="48.60116" lon="1.70301">
        <ele>119.8</ele>
        <time>2023-03-16T10:30:34Z</time>
      </trkpt>
      <trkpt lat="48.6011" lon="1.70313">
        <ele>119.7</ele>
        <time>2023-03-16T10:30:44Z</time>
      </trkpt>
      <trkpt lat="48.601" lon="1.7031">
        <ele>119.9</ele>
        <time>2023-03-16T10:30:56Z</time>
      </trkpt>
      <trkpt lat="48.60092" lon="1.70308">
        <ele>119.9</ele>
        <time>2023-03-16T10:31:14Z</time>
      </trkpt>
    </trkseg>
  </trk>
</gpx>